<?xml version="1.0" encoding="UTF-8"?>
<gpx xmlns:xsi="http://www.w3.org/2001/XMLSchema-instance" xsi:schemaLocation="http://www.topografix.com/GPX/1/1 http://www.topografix.com/GPX/1/1/gpx.xsd" creator="StravaGPX" version="1.1" xmlns="http://www.topografix.com/GPX/1/1">
 <metadata>
  <time>2025-12-20T13:08:49Z</time>
 </metadata>
 <trk>
  <name>Before shopping</name>
  <type>walking</type>
  <trkseg>
   <trkpt lat="53.4510220" lon="-6.1570440">
    <ele>8.0</ele>
    <time>2025-12-20T13:08:49Z</time>
   </trkpt>
   <trkpt lat="53.4510740" lon="-6.1570850">
    <ele>8.2</ele>
    <time>2025-12-20T13:08:54Z</time>
   </trkpt>
   <trkpt lat="53.4511150" lon="-6.1571950">
    <ele>8.6</ele>
    <time>2025-12-20T13:08:59Z</time>
   </trkpt>
   <trkpt lat="53.4511370" lon="-6.1573090">
    <ele>8.8</ele>
    <time>2025-12-20T13:09:05Z</time>
   </trkpt>
   <trkpt lat="53.4511540" lon="-6.1574410">
    <ele>8.9</ele>
    <time>2025-12-20T13:09:10Z</time>
   </trkpt>
   <trkpt lat="53.4511330" lon="-6.1575450">
    <ele>8.3</ele>
    <time>2025-12-20T13:09:15Z</time>
   </trkpt>
   <trkpt lat="53.4511140" lon="-6.1576500">
    <ele>8.3</ele>
    <time>2025-12-20T13:09:21Z</time>
   </trkpt>
   <trkpt lat="53.4511020" lon="-6.1577400">
    <ele>8.7</ele>
    <time>2025-12-20T13:09:26Z</time>
   </trkpt>
   <trkpt lat="53.4510690" lon="-6.1578270">
    <ele>8.8</ele>
    <time>2025-12-20T13:09:31Z</time>
   </trkpt>
   <trkpt lat="53.4510360" lon="-6.1579000">
    <ele>8.9</ele>
    <time>2025-12-20T13:09:36Z</time>
   </trkpt>
   <trkpt lat="53.4510180" lon="-6.1579860">
    <ele>9.1</ele>
    <time>2025-12-20T13:09:42Z</time>
   </trkpt>
   <trkpt lat="53.4509920" lon="-6.1580630">
    <ele>9.7</ele>
    <time>2025-12-20T13:09:47Z</time>
   </trkpt>
   <trkpt lat="53.4509920" lon="-6.1581550">
    <ele>10.1</ele>
    <time>2025-12-20T13:09:52Z</time>
   </trkpt>
   <trkpt lat="53.4510220" lon="-6.1582420">
    <ele>10.2</ele>
    <time>2025-12-20T13:09:57Z</time>
   </trkpt>
   <trkpt lat="53.4510150" lon="-6.1583310">
    <ele>10.3</ele>
    <time>2025-12-20T13:10:02Z</time>
   </trkpt>
   <trkpt lat="53.4509450" lon="-6.1583660">
    <ele>10.3</ele>
    <time>2025-12-20T13:10:08Z</time>
   </trkpt>
   <trkpt lat="53.4508750" lon="-6.1584180">
    <ele>10.5</ele>
    <time>2025-12-20T13:10:14Z</time>
   </trkpt>
   <trkpt lat="53.4508430" lon="-6.1585170">
    <ele>10.4</ele>
    <time>2025-12-20T13:10:19Z</time>
   </trkpt>
   <trkpt lat="53.4507940" lon="-6.1585560">
    <ele>11.0</ele>
    <time>2025-12-20T13:10:24Z</time>
   </trkpt>
   <trkpt lat="53.4507230" lon="-6.1585810">
    <ele>10.9</ele>
    <time>2025-12-20T13:10:29Z</time>
   </trkpt>
   <trkpt lat="53.4506390" lon="-6.1586430">
    <ele>10.9</ele>
    <time>2025-12-20T13:10:35Z</time>
   </trkpt>
   <trkpt lat="53.4505780" lon="-6.1586890">
    <ele>10.9</ele>
    <time>2025-12-20T13:10:40Z</time>
   </trkpt>
   <trkpt lat="53.4505090" lon="-6.1586760">
    <ele>10.9</ele>
    <time>2025-12-20T13:10:45Z</time>
   </trkpt>
   <trkpt lat="53.4504470" lon="-6.1586930">
    <ele>10.9</ele>
    <time>2025-12-20T13:10:50Z</time>
   </trkpt>
   <trkpt lat="53.4503930" lon="-6.1587370">
    <ele>10.8</ele>
    <time>2025-12-20T13:10:55Z</time>
   </trkpt>
   <trkpt lat="53.4503670" lon="-6.1588130">
    <ele>12.5</ele>
    <time>2025-12-20T13:11:00Z</time>
   </trkpt>
   <trkpt lat="53.4503710" lon="-6.1589200">
    <ele>13.2</ele>
    <time>2025-12-20T13:11:06Z</time>
   </trkpt>
   <trkpt lat="53.4503530" lon="-6.1590190">
    <ele>13.5</ele>
    <time>2025-12-20T13:11:11Z</time>
   </trkpt>
   <trkpt lat="53.4502910" lon="-6.1590780">
    <ele>13.6</ele>
    <time>2025-12-20T13:11:17Z</time>
   </trkpt>
   <trkpt lat="53.4502090" lon="-6.1590920">
    <ele>13.6</ele>
    <time>2025-12-20T13:11:22Z</time>
   </trkpt>
   <trkpt lat="53.4501440" lon="-6.1590860">
    <ele>13.6</ele>
    <time>2025-12-20T13:11:27Z</time>
   </trkpt>
   <trkpt lat="53.4500790" lon="-6.1590730">
    <ele>13.7</ele>
    <time>2025-12-20T13:11:32Z</time>
   </trkpt>
   <trkpt lat="53.4500510" lon="-6.1590100">
    <ele>13.9</ele>
    <time>2025-12-20T13:11:42Z</time>
   </trkpt>
   <trkpt lat="53.4500350" lon="-6.1588730">
    <ele>13.9</ele>
    <time>2025-12-20T13:11:48Z</time>
   </trkpt>
   <trkpt lat="53.4499920" lon="-6.1588000">
    <ele>13.8</ele>
    <time>2025-12-20T13:11:53Z</time>
   </trkpt>
   <trkpt lat="53.4499520" lon="-6.1587550">
    <ele>13.8</ele>
    <time>2025-12-20T13:12:00Z</time>
   </trkpt>
   <trkpt lat="53.4499300" lon="-6.1586550">
    <ele>13.9</ele>
    <time>2025-12-20T13:12:05Z</time>
   </trkpt>
   <trkpt lat="53.4498700" lon="-6.1586320">
    <ele>13.8</ele>
    <time>2025-12-20T13:12:11Z</time>
   </trkpt>
   <trkpt lat="53.4498010" lon="-6.1585990">
    <ele>13.8</ele>
    <time>2025-12-20T13:12:16Z</time>
   </trkpt>
   <trkpt lat="53.4497220" lon="-6.1585780">
    <ele>13.8</ele>
    <time>2025-12-20T13:12:21Z</time>
   </trkpt>
   <trkpt lat="53.4496550" lon="-6.1585880">
    <ele>13.8</ele>
    <time>2025-12-20T13:12:26Z</time>
   </trkpt>
   <trkpt lat="53.4495840" lon="-6.1586110">
    <ele>13.8</ele>
    <time>2025-12-20T13:12:31Z</time>
   </trkpt>
   <trkpt lat="53.4495340" lon="-6.1586120">
    <ele>13.8</ele>
    <time>2025-12-20T13:12:36Z</time>
   </trkpt>
   <trkpt lat="53.4494750" lon="-6.1585930">
    <ele>13.8</ele>
    <time>2025-12-20T13:12:41Z</time>
   </trkpt>
   <trkpt lat="53.4494040" lon="-6.1585920">
    <ele>13.8</ele>
    <time>2025-12-20T13:12:46Z</time>
   </trkpt>
   <trkpt lat="53.4493240" lon="-6.1585900">
    <ele>13.9</ele>
    <time>2025-12-20T13:12:51Z</time>
   </trkpt>
   <trkpt lat="53.4492630" lon="-6.1586020">
    <ele>13.9</ele>
    <time>2025-12-20T13:12:56Z</time>
   </trkpt>
   <trkpt lat="53.4491980" lon="-6.1586250">
    <ele>13.9</ele>
    <time>2025-12-20T13:13:02Z</time>
   </trkpt>
   <trkpt lat="53.4491360" lon="-6.1586260">
    <ele>13.9</ele>
    <time>2025-12-20T13:13:07Z</time>
   </trkpt>
   <trkpt lat="53.4490650" lon="-6.1586130">
    <ele>13.9</ele>
    <time>2025-12-20T13:13:12Z</time>
   </trkpt>
   <trkpt lat="53.4489910" lon="-6.1585870">
    <ele>13.9</ele>
    <time>2025-12-20T13:13:18Z</time>
   </trkpt>
   <trkpt lat="53.4489290" lon="-6.1585810">
    <ele>13.9</ele>
    <time>2025-12-20T13:13:23Z</time>
   </trkpt>
   <trkpt lat="53.4488670" lon="-6.1586350">
    <ele>13.9</ele>
    <time>2025-12-20T13:13:28Z</time>
   </trkpt>
   <trkpt lat="53.4488050" lon="-6.1587070">
    <ele>13.9</ele>
    <time>2025-12-20T13:13:34Z</time>
   </trkpt>
   <trkpt lat="53.4487630" lon="-6.1587860">
    <ele>13.9</ele>
    <time>2025-12-20T13:13:39Z</time>
   </trkpt>
   <trkpt lat="53.4486990" lon="-6.1588760">
    <ele>13.9</ele>
    <time>2025-12-20T13:13:45Z</time>
   </trkpt>
   <trkpt lat="53.4486520" lon="-6.1589570">
    <ele>13.9</ele>
    <time>2025-12-20T13:13:50Z</time>
   </trkpt>
   <trkpt lat="53.4486390" lon="-6.1590340">
    <ele>13.9</ele>
    <time>2025-12-20T13:13:55Z</time>
   </trkpt>
   <trkpt lat="53.4485840" lon="-6.1590540">
    <ele>13.9</ele>
    <time>2025-12-20T13:14:07Z</time>
   </trkpt>
   <trkpt lat="53.4484750" lon="-6.1590860">
    <ele>13.9</ele>
    <time>2025-12-20T13:14:12Z</time>
   </trkpt>
   <trkpt lat="53.4483880" lon="-6.1591730">
    <ele>13.9</ele>
    <time>2025-12-20T13:14:17Z</time>
   </trkpt>
   <trkpt lat="53.4483180" lon="-6.1592460">
    <ele>13.9</ele>
    <time>2025-12-20T13:14:22Z</time>
   </trkpt>
   <trkpt lat="53.4482600" lon="-6.1593270">
    <ele>13.9</ele>
    <time>2025-12-20T13:14:28Z</time>
   </trkpt>
   <trkpt lat="53.4482110" lon="-6.1594280">
    <ele>14.1</ele>
    <time>2025-12-20T13:14:33Z</time>
   </trkpt>
   <trkpt lat="53.4481720" lon="-6.1595350">
    <ele>14.8</ele>
    <time>2025-12-20T13:14:39Z</time>
   </trkpt>
   <trkpt lat="53.4481290" lon="-6.1596290">
    <ele>15.3</ele>
    <time>2025-12-20T13:14:44Z</time>
   </trkpt>
   <trkpt lat="53.4480770" lon="-6.1597140">
    <ele>15.5</ele>
    <time>2025-12-20T13:14:49Z</time>
   </trkpt>
   <trkpt lat="53.4480430" lon="-6.1598230">
    <ele>15.6</ele>
    <time>2025-12-20T13:14:55Z</time>
   </trkpt>
   <trkpt lat="53.4480320" lon="-6.1599350">
    <ele>16.1</ele>
    <time>2025-12-20T13:15:00Z</time>
   </trkpt>
   <trkpt lat="53.4480310" lon="-6.1600540">
    <ele>16.9</ele>
    <time>2025-12-20T13:15:06Z</time>
   </trkpt>
   <trkpt lat="53.4480350" lon="-6.1601910">
    <ele>17.0</ele>
    <time>2025-12-20T13:15:11Z</time>
   </trkpt>
   <trkpt lat="53.4480420" lon="-6.1603170">
    <ele>16.8</ele>
    <time>2025-12-20T13:15:17Z</time>
   </trkpt>
   <trkpt lat="53.4480430" lon="-6.1604420">
    <ele>16.9</ele>
    <time>2025-12-20T13:15:22Z</time>
   </trkpt>
   <trkpt lat="53.4480610" lon="-6.1605600">
    <ele>16.6</ele>
    <time>2025-12-20T13:15:28Z</time>
   </trkpt>
   <trkpt lat="53.4480770" lon="-6.1606770">
    <ele>16.0</ele>
    <time>2025-12-20T13:15:33Z</time>
   </trkpt>
   <trkpt lat="53.4480940" lon="-6.1607910">
    <ele>15.9</ele>
    <time>2025-12-20T13:15:38Z</time>
   </trkpt>
   <trkpt lat="53.4481070" lon="-6.1609050">
    <ele>16.6</ele>
    <time>2025-12-20T13:15:44Z</time>
   </trkpt>
   <trkpt lat="53.4481280" lon="-6.1610110">
    <ele>17.1</ele>
    <time>2025-12-20T13:15:49Z</time>
   </trkpt>
   <trkpt lat="53.4481720" lon="-6.1611000">
    <ele>16.5</ele>
    <time>2025-12-20T13:15:54Z</time>
   </trkpt>
   <trkpt lat="53.4482060" lon="-6.1612030">
    <ele>15.9</ele>
    <time>2025-12-20T13:16:00Z</time>
   </trkpt>
   <trkpt lat="53.4482480" lon="-6.1612950">
    <ele>15.7</ele>
    <time>2025-12-20T13:16:05Z</time>
   </trkpt>
   <trkpt lat="53.4483030" lon="-6.1613670">
    <ele>15.8</ele>
    <time>2025-12-20T13:16:11Z</time>
   </trkpt>
   <trkpt lat="53.4483580" lon="-6.1614350">
    <ele>15.9</ele>
    <time>2025-12-20T13:16:16Z</time>
   </trkpt>
   <trkpt lat="53.4484250" lon="-6.1614920">
    <ele>15.9</ele>
    <time>2025-12-20T13:16:22Z</time>
   </trkpt>
   <trkpt lat="53.4484910" lon="-6.1615670">
    <ele>15.9</ele>
    <time>2025-12-20T13:16:27Z</time>
   </trkpt>
   <trkpt lat="53.4485540" lon="-6.1616380">
    <ele>15.9</ele>
    <time>2025-12-20T13:16:32Z</time>
   </trkpt>
   <trkpt lat="53.4486310" lon="-6.1616590">
    <ele>15.9</ele>
    <time>2025-12-20T13:16:38Z</time>
   </trkpt>
   <trkpt lat="53.4487020" lon="-6.1616510">
    <ele>15.1</ele>
    <time>2025-12-20T13:16:43Z</time>
   </trkpt>
   <trkpt lat="53.4487690" lon="-6.1616230">
    <ele>14.8</ele>
    <time>2025-12-20T13:16:49Z</time>
   </trkpt>
   <trkpt lat="53.4487850" lon="-6.1615300">
    <ele>15.0</ele>
    <time>2025-12-20T13:16:55Z</time>
   </trkpt>
   <trkpt lat="53.4488160" lon="-6.1614700">
    <ele>15.9</ele>
    <time>2025-12-20T13:17:21Z</time>
   </trkpt>
   <trkpt lat="53.4489150" lon="-6.1614680">
    <ele>15.9</ele>
    <time>2025-12-20T13:17:27Z</time>
   </trkpt>
   <trkpt lat="53.4490110" lon="-6.1615380">
    <ele>15.6</ele>
    <time>2025-12-20T13:17:32Z</time>
   </trkpt>
   <trkpt lat="53.4490750" lon="-6.1616480">
    <ele>15.4</ele>
    <time>2025-12-20T13:17:37Z</time>
   </trkpt>
   <trkpt lat="53.4491080" lon="-6.1617680">
    <ele>15.5</ele>
    <time>2025-12-20T13:17:42Z</time>
   </trkpt>
   <trkpt lat="53.4491200" lon="-6.1618950">
    <ele>15.8</ele>
    <time>2025-12-20T13:17:48Z</time>
   </trkpt>
   <trkpt lat="53.4491410" lon="-6.1620190">
    <ele>15.9</ele>
    <time>2025-12-20T13:17:53Z</time>
   </trkpt>
   <trkpt lat="53.4491460" lon="-6.1621860">
    <ele>16.1</ele>
    <time>2025-12-20T13:17:59Z</time>
   </trkpt>
   <trkpt lat="53.4491530" lon="-6.1623420">
    <ele>16.1</ele>
    <time>2025-12-20T13:18:04Z</time>
   </trkpt>
   <trkpt lat="53.4491180" lon="-6.1625530">
    <ele>16.2</ele>
    <time>2025-12-20T13:18:09Z</time>
   </trkpt>
   <trkpt lat="53.4491140" lon="-6.1627040">
    <ele>16.4</ele>
    <time>2025-12-20T13:18:14Z</time>
   </trkpt>
   <trkpt lat="53.4491350" lon="-6.1628080">
    <ele>16.7</ele>
    <time>2025-12-20T13:18:19Z</time>
   </trkpt>
   <trkpt lat="53.4490960" lon="-6.1630020">
    <ele>16.8</ele>
    <time>2025-12-20T13:18:25Z</time>
   </trkpt>
   <trkpt lat="53.4490500" lon="-6.1630970">
    <ele>16.2</ele>
    <time>2025-12-20T13:18:30Z</time>
   </trkpt>
   <trkpt lat="53.4490060" lon="-6.1631900">
    <ele>15.6</ele>
    <time>2025-12-20T13:18:36Z</time>
   </trkpt>
   <trkpt lat="53.4489620" lon="-6.1632900">
    <ele>15.8</ele>
    <time>2025-12-20T13:18:41Z</time>
   </trkpt>
   <trkpt lat="53.4489310" lon="-6.1633980">
    <ele>15.8</ele>
    <time>2025-12-20T13:18:47Z</time>
   </trkpt>
   <trkpt lat="53.4489090" lon="-6.1635100">
    <ele>15.7</ele>
    <time>2025-12-20T13:18:52Z</time>
   </trkpt>
   <trkpt lat="53.4488870" lon="-6.1636240">
    <ele>15.9</ele>
    <time>2025-12-20T13:18:57Z</time>
   </trkpt>
   <trkpt lat="53.4488730" lon="-6.1637340">
    <ele>15.9</ele>
    <time>2025-12-20T13:19:03Z</time>
   </trkpt>
   <trkpt lat="53.4488600" lon="-6.1638510">
    <ele>15.7</ele>
    <time>2025-12-20T13:19:08Z</time>
   </trkpt>
   <trkpt lat="53.4488200" lon="-6.1639710">
    <ele>15.3</ele>
    <time>2025-12-20T13:19:14Z</time>
   </trkpt>
   <trkpt lat="53.4487760" lon="-6.1640730">
    <ele>14.9</ele>
    <time>2025-12-20T13:19:19Z</time>
   </trkpt>
   <trkpt lat="53.4487490" lon="-6.1641760">
    <ele>14.7</ele>
    <time>2025-12-20T13:19:25Z</time>
   </trkpt>
   <trkpt lat="53.4487440" lon="-6.1642840">
    <ele>14.9</ele>
    <time>2025-12-20T13:19:30Z</time>
   </trkpt>
   <trkpt lat="53.4487370" lon="-6.1643850">
    <ele>15.0</ele>
    <time>2025-12-20T13:19:35Z</time>
   </trkpt>
   <trkpt lat="53.4487030" lon="-6.1644990">
    <ele>15.0</ele>
    <time>2025-12-20T13:19:41Z</time>
   </trkpt>
   <trkpt lat="53.4486760" lon="-6.1645910">
    <ele>15.2</ele>
    <time>2025-12-20T13:19:46Z</time>
   </trkpt>
   <trkpt lat="53.4486700" lon="-6.1646860">
    <ele>15.4</ele>
    <time>2025-12-20T13:19:51Z</time>
   </trkpt>
   <trkpt lat="53.4486730" lon="-6.1647960">
    <ele>15.4</ele>
    <time>2025-12-20T13:19:57Z</time>
   </trkpt>
   <trkpt lat="53.4486570" lon="-6.1648890">
    <ele>15.4</ele>
    <time>2025-12-20T13:20:02Z</time>
   </trkpt>
   <trkpt lat="53.4486410" lon="-6.1649890">
    <ele>15.6</ele>
    <time>2025-12-20T13:20:07Z</time>
   </trkpt>
   <trkpt lat="53.4486220" lon="-6.1651030">
    <ele>15.9</ele>
    <time>2025-12-20T13:20:12Z</time>
   </trkpt>
   <trkpt lat="53.4485970" lon="-6.1651820">
    <ele>16.4</ele>
    <time>2025-12-20T13:20:17Z</time>
   </trkpt>
   <trkpt lat="53.4485850" lon="-6.1652930">
    <ele>16.5</ele>
    <time>2025-12-20T13:20:22Z</time>
   </trkpt>
   <trkpt lat="53.4485690" lon="-6.1654070">
    <ele>16.1</ele>
    <time>2025-12-20T13:20:27Z</time>
   </trkpt>
   <trkpt lat="53.4485680" lon="-6.1655160">
    <ele>16.2</ele>
    <time>2025-12-20T13:20:33Z</time>
   </trkpt>
   <trkpt lat="53.4485610" lon="-6.1656100">
    <ele>16.3</ele>
    <time>2025-12-20T13:20:38Z</time>
   </trkpt>
   <trkpt lat="53.4485400" lon="-6.1657380">
    <ele>16.4</ele>
    <time>2025-12-20T13:20:43Z</time>
   </trkpt>
   <trkpt lat="53.4485260" lon="-6.1658510">
    <ele>16.5</ele>
    <time>2025-12-20T13:20:48Z</time>
   </trkpt>
   <trkpt lat="53.4485200" lon="-6.1659680">
    <ele>16.6</ele>
    <time>2025-12-20T13:20:54Z</time>
   </trkpt>
   <trkpt lat="53.4485120" lon="-6.1660820">
    <ele>16.9</ele>
    <time>2025-12-20T13:20:59Z</time>
   </trkpt>
   <trkpt lat="53.4484900" lon="-6.1661820">
    <ele>17.2</ele>
    <time>2025-12-20T13:21:05Z</time>
   </trkpt>
   <trkpt lat="53.4484590" lon="-6.1662920">
    <ele>17.3</ele>
    <time>2025-12-20T13:21:10Z</time>
   </trkpt>
   <trkpt lat="53.4484540" lon="-6.1663990">
    <ele>17.3</ele>
    <time>2025-12-20T13:21:16Z</time>
   </trkpt>
   <trkpt lat="53.4484430" lon="-6.1665130">
    <ele>17.2</ele>
    <time>2025-12-20T13:21:21Z</time>
   </trkpt>
   <trkpt lat="53.4484060" lon="-6.1666060">
    <ele>17.0</ele>
    <time>2025-12-20T13:21:27Z</time>
   </trkpt>
   <trkpt lat="53.4483930" lon="-6.1667250">
    <ele>16.9</ele>
    <time>2025-12-20T13:21:32Z</time>
   </trkpt>
   <trkpt lat="53.4483730" lon="-6.1668400">
    <ele>17.4</ele>
    <time>2025-12-20T13:21:37Z</time>
   </trkpt>
   <trkpt lat="53.4483440" lon="-6.1669530">
    <ele>17.7</ele>
    <time>2025-12-20T13:21:43Z</time>
   </trkpt>
   <trkpt lat="53.4483290" lon="-6.1670660">
    <ele>17.8</ele>
    <time>2025-12-20T13:21:48Z</time>
   </trkpt>
   <trkpt lat="53.4483170" lon="-6.1671670">
    <ele>17.9</ele>
    <time>2025-12-20T13:21:54Z</time>
   </trkpt>
   <trkpt lat="53.4483030" lon="-6.1672860">
    <ele>18.0</ele>
    <time>2025-12-20T13:21:59Z</time>
   </trkpt>
   <trkpt lat="53.4482770" lon="-6.1673780">
    <ele>18.1</ele>
    <time>2025-12-20T13:22:05Z</time>
   </trkpt>
   <trkpt lat="53.4482700" lon="-6.1674760">
    <ele>18.2</ele>
    <time>2025-12-20T13:22:10Z</time>
   </trkpt>
   <trkpt lat="53.4482270" lon="-6.1675650">
    <ele>18.4</ele>
    <time>2025-12-20T13:22:15Z</time>
   </trkpt>
   <trkpt lat="53.4481960" lon="-6.1676710">
    <ele>18.3</ele>
    <time>2025-12-20T13:22:20Z</time>
   </trkpt>
   <trkpt lat="53.4481920" lon="-6.1677950">
    <ele>18.5</ele>
    <time>2025-12-20T13:22:26Z</time>
   </trkpt>
   <trkpt lat="53.4481760" lon="-6.1679080">
    <ele>19.1</ele>
    <time>2025-12-20T13:22:32Z</time>
   </trkpt>
   <trkpt lat="53.4481410" lon="-6.1680150">
    <ele>19.2</ele>
    <time>2025-12-20T13:22:37Z</time>
   </trkpt>
   <trkpt lat="53.4481280" lon="-6.1681240">
    <ele>19.1</ele>
    <time>2025-12-20T13:22:43Z</time>
   </trkpt>
   <trkpt lat="53.4481130" lon="-6.1682380">
    <ele>19.1</ele>
    <time>2025-12-20T13:22:48Z</time>
   </trkpt>
   <trkpt lat="53.4481010" lon="-6.1683600">
    <ele>19.1</ele>
    <time>2025-12-20T13:22:54Z</time>
   </trkpt>
   <trkpt lat="53.4480900" lon="-6.1684680">
    <ele>19.0</ele>
    <time>2025-12-20T13:22:59Z</time>
   </trkpt>
   <trkpt lat="53.4480720" lon="-6.1685690">
    <ele>19.2</ele>
    <time>2025-12-20T13:23:04Z</time>
   </trkpt>
   <trkpt lat="53.4480610" lon="-6.1686900">
    <ele>19.6</ele>
    <time>2025-12-20T13:23:09Z</time>
   </trkpt>
   <trkpt lat="53.4480420" lon="-6.1687870">
    <ele>19.6</ele>
    <time>2025-12-20T13:23:15Z</time>
   </trkpt>
   <trkpt lat="53.4480270" lon="-6.1688920">
    <ele>19.6</ele>
    <time>2025-12-20T13:23:20Z</time>
   </trkpt>
   <trkpt lat="53.4480100" lon="-6.1689940">
    <ele>19.6</ele>
    <time>2025-12-20T13:23:26Z</time>
   </trkpt>
   <trkpt lat="53.4479890" lon="-6.1690990">
    <ele>19.9</ele>
    <time>2025-12-20T13:23:31Z</time>
   </trkpt>
   <trkpt lat="53.4479120" lon="-6.1691260">
    <ele>20.7</ele>
    <time>2025-12-20T13:23:37Z</time>
   </trkpt>
   <trkpt lat="53.4478480" lon="-6.1691540">
    <ele>20.7</ele>
    <time>2025-12-20T13:23:42Z</time>
   </trkpt>
   <trkpt lat="53.4477890" lon="-6.1691260">
    <ele>19.9</ele>
    <time>2025-12-20T13:23:48Z</time>
   </trkpt>
   <trkpt lat="53.4477190" lon="-6.1690990">
    <ele>19.4</ele>
    <time>2025-12-20T13:23:53Z</time>
   </trkpt>
   <trkpt lat="53.4476400" lon="-6.1691010">
    <ele>19.1</ele>
    <time>2025-12-20T13:23:58Z</time>
   </trkpt>
   <trkpt lat="53.4475590" lon="-6.1691200">
    <ele>19.0</ele>
    <time>2025-12-20T13:24:04Z</time>
   </trkpt>
   <trkpt lat="53.4474950" lon="-6.1691520">
    <ele>19.1</ele>
    <time>2025-12-20T13:24:09Z</time>
   </trkpt>
   <trkpt lat="53.4474360" lon="-6.1692150">
    <ele>18.9</ele>
    <time>2025-12-20T13:24:14Z</time>
   </trkpt>
   <trkpt lat="53.4473850" lon="-6.1692920">
    <ele>18.9</ele>
    <time>2025-12-20T13:24:19Z</time>
   </trkpt>
   <trkpt lat="53.4473340" lon="-6.1693320">
    <ele>19.0</ele>
    <time>2025-12-20T13:24:24Z</time>
   </trkpt>
   <trkpt lat="53.4472850" lon="-6.1693890">
    <ele>19.2</ele>
    <time>2025-12-20T13:24:29Z</time>
   </trkpt>
   <trkpt lat="53.4472330" lon="-6.1694560">
    <ele>19.1</ele>
    <time>2025-12-20T13:24:35Z</time>
   </trkpt>
   <trkpt lat="53.4471860" lon="-6.1695330">
    <ele>19.0</ele>
    <time>2025-12-20T13:24:40Z</time>
   </trkpt>
   <trkpt lat="53.4471340" lon="-6.1696080">
    <ele>18.7</ele>
    <time>2025-12-20T13:24:45Z</time>
   </trkpt>
   <trkpt lat="53.4470870" lon="-6.1696950">
    <ele>18.4</ele>
    <time>2025-12-20T13:24:50Z</time>
   </trkpt>
   <trkpt lat="53.4470250" lon="-6.1697700">
    <ele>18.5</ele>
    <time>2025-12-20T13:24:56Z</time>
   </trkpt>
   <trkpt lat="53.4469780" lon="-6.1698330">
    <ele>18.9</ele>
    <time>2025-12-20T13:25:01Z</time>
   </trkpt>
   <trkpt lat="53.4469410" lon="-6.1699270">
    <ele>19.0</ele>
    <time>2025-12-20T13:25:06Z</time>
   </trkpt>
   <trkpt lat="53.4469200" lon="-6.1700310">
    <ele>18.7</ele>
    <time>2025-12-20T13:25:11Z</time>
   </trkpt>
   <trkpt lat="53.4468890" lon="-6.1701360">
    <ele>18.7</ele>
    <time>2025-12-20T13:25:16Z</time>
   </trkpt>
   <trkpt lat="53.4468980" lon="-6.1702470">
    <ele>19.2</ele>
    <time>2025-12-20T13:25:21Z</time>
   </trkpt>
   <trkpt lat="53.4469210" lon="-6.1703610">
    <ele>19.4</ele>
    <time>2025-12-20T13:25:26Z</time>
   </trkpt>
   <trkpt lat="53.4469560" lon="-6.1704940">
    <ele>19.1</ele>
    <time>2025-12-20T13:25:32Z</time>
   </trkpt>
   <trkpt lat="53.4469840" lon="-6.1705860">
    <ele>18.7</ele>
    <time>2025-12-20T13:25:37Z</time>
   </trkpt>
   <trkpt lat="53.4469880" lon="-6.1706910">
    <ele>18.1</ele>
    <time>2025-12-20T13:25:42Z</time>
   </trkpt>
   <trkpt lat="53.4469720" lon="-6.1708060">
    <ele>17.3</ele>
    <time>2025-12-20T13:25:47Z</time>
   </trkpt>
   <trkpt lat="53.4469620" lon="-6.1709250">
    <ele>17.1</ele>
    <time>2025-12-20T13:25:53Z</time>
   </trkpt>
   <trkpt lat="53.4469670" lon="-6.1710250">
    <ele>17.0</ele>
    <time>2025-12-20T13:25:58Z</time>
   </trkpt>
   <trkpt lat="53.4469660" lon="-6.1711340">
    <ele>17.0</ele>
    <time>2025-12-20T13:26:04Z</time>
   </trkpt>
   <trkpt lat="53.4469610" lon="-6.1712450">
    <ele>16.7</ele>
    <time>2025-12-20T13:26:09Z</time>
   </trkpt>
   <trkpt lat="53.4469520" lon="-6.1713350">
    <ele>16.6</ele>
    <time>2025-12-20T13:26:15Z</time>
   </trkpt>
   <trkpt lat="53.4469010" lon="-6.1713860">
    <ele>16.8</ele>
    <time>2025-12-20T13:26:20Z</time>
   </trkpt>
   <trkpt lat="53.4468370" lon="-6.1714310">
    <ele>17.1</ele>
    <time>2025-12-20T13:26:25Z</time>
   </trkpt>
   <trkpt lat="53.4467890" lon="-6.1714830">
    <ele>16.6</ele>
    <time>2025-12-20T13:26:31Z</time>
   </trkpt>
   <trkpt lat="53.4467430" lon="-6.1714620">
    <ele>17.0</ele>
    <time>2025-12-20T13:26:49Z</time>
   </trkpt>
   <trkpt lat="53.4466260" lon="-6.1715350">
    <ele>16.9</ele>
    <time>2025-12-20T13:26:55Z</time>
   </trkpt>
   <trkpt lat="53.4465490" lon="-6.1715920">
    <ele>16.9</ele>
    <time>2025-12-20T13:27:00Z</time>
   </trkpt>
   <trkpt lat="53.4464890" lon="-6.1716240">
    <ele>16.2</ele>
    <time>2025-12-20T13:27:05Z</time>
   </trkpt>
   <trkpt lat="53.4464420" lon="-6.1716420">
    <ele>15.8</ele>
    <time>2025-12-20T13:27:13Z</time>
   </trkpt>
   <trkpt lat="53.4464010" lon="-6.1716830">
    <ele>15.5</ele>
    <time>2025-12-20T13:27:19Z</time>
   </trkpt>
   <trkpt lat="53.4463630" lon="-6.1717440">
    <ele>15.4</ele>
    <time>2025-12-20T13:27:28Z</time>
   </trkpt>
   <trkpt lat="53.4462840" lon="-6.1718620">
    <ele>15.4</ele>
    <time>2025-12-20T13:27:33Z</time>
   </trkpt>
   <trkpt lat="53.4462460" lon="-6.1719400">
    <ele>15.4</ele>
    <time>2025-12-20T13:27:38Z</time>
   </trkpt>
   <trkpt lat="53.4462060" lon="-6.1720280">
    <ele>15.4</ele>
    <time>2025-12-20T13:27:44Z</time>
   </trkpt>
   <trkpt lat="53.4461620" lon="-6.1721020">
    <ele>15.4</ele>
    <time>2025-12-20T13:27:49Z</time>
   </trkpt>
   <trkpt lat="53.4461200" lon="-6.1721650">
    <ele>15.4</ele>
    <time>2025-12-20T13:27:54Z</time>
   </trkpt>
   <trkpt lat="53.4460660" lon="-6.1722100">
    <ele>15.4</ele>
    <time>2025-12-20T13:27:59Z</time>
   </trkpt>
   <trkpt lat="53.4460090" lon="-6.1722400">
    <ele>15.4</ele>
    <time>2025-12-20T13:28:04Z</time>
   </trkpt>
   <trkpt lat="53.4459410" lon="-6.1722830">
    <ele>15.4</ele>
    <time>2025-12-20T13:28:09Z</time>
   </trkpt>
   <trkpt lat="53.4458720" lon="-6.1722990">
    <ele>15.5</ele>
    <time>2025-12-20T13:28:15Z</time>
   </trkpt>
   <trkpt lat="53.4458020" lon="-6.1723060">
    <ele>15.6</ele>
    <time>2025-12-20T13:28:20Z</time>
   </trkpt>
   <trkpt lat="53.4457290" lon="-6.1723260">
    <ele>15.6</ele>
    <time>2025-12-20T13:28:26Z</time>
   </trkpt>
   <trkpt lat="53.4456650" lon="-6.1723420">
    <ele>15.6</ele>
    <time>2025-12-20T13:28:32Z</time>
   </trkpt>
   <trkpt lat="53.4456060" lon="-6.1723240">
    <ele>15.6</ele>
    <time>2025-12-20T13:28:37Z</time>
   </trkpt>
   <trkpt lat="53.4455530" lon="-6.1722620">
    <ele>15.6</ele>
    <time>2025-12-20T13:28:43Z</time>
   </trkpt>
   <trkpt lat="53.4455170" lon="-6.1721630">
    <ele>15.5</ele>
    <time>2025-12-20T13:28:48Z</time>
   </trkpt>
   <trkpt lat="53.4454770" lon="-6.1720690">
    <ele>15.5</ele>
    <time>2025-12-20T13:28:53Z</time>
   </trkpt>
   <trkpt lat="53.4454320" lon="-6.1719940">
    <ele>15.4</ele>
    <time>2025-12-20T13:28:58Z</time>
   </trkpt>
   <trkpt lat="53.4453830" lon="-6.1719140">
    <ele>15.5</ele>
    <time>2025-12-20T13:29:04Z</time>
   </trkpt>
   <trkpt lat="53.4453460" lon="-6.1718630">
    <ele>15.5</ele>
    <time>2025-12-20T13:29:10Z</time>
   </trkpt>
   <trkpt lat="53.4453040" lon="-6.1718120">
    <ele>15.5</ele>
    <time>2025-12-20T13:29:15Z</time>
   </trkpt>
   <trkpt lat="53.4452570" lon="-6.1717440">
    <ele>15.4</ele>
    <time>2025-12-20T13:29:21Z</time>
   </trkpt>
   <trkpt lat="53.4451910" lon="-6.1717560">
    <ele>15.4</ele>
    <time>2025-12-20T13:29:26Z</time>
   </trkpt>
   <trkpt lat="53.4451180" lon="-6.1717940">
    <ele>15.4</ele>
    <time>2025-12-20T13:29:31Z</time>
   </trkpt>
   <trkpt lat="53.4450460" lon="-6.1718210">
    <ele>14.7</ele>
    <time>2025-12-20T13:29:36Z</time>
   </trkpt>
   <trkpt lat="53.4449710" lon="-6.1718750">
    <ele>14.4</ele>
    <time>2025-12-20T13:29:42Z</time>
   </trkpt>
   <trkpt lat="53.4448990" lon="-6.1719250">
    <ele>14.3</ele>
    <time>2025-12-20T13:29:47Z</time>
   </trkpt>
   <trkpt lat="53.4448290" lon="-6.1719720">
    <ele>14.2</ele>
    <time>2025-12-20T13:29:53Z</time>
   </trkpt>
   <trkpt lat="53.4447680" lon="-6.1720250">
    <ele>14.2</ele>
    <time>2025-12-20T13:29:58Z</time>
   </trkpt>
   <trkpt lat="53.4447090" lon="-6.1720460">
    <ele>14.2</ele>
    <time>2025-12-20T13:30:03Z</time>
   </trkpt>
   <trkpt lat="53.4446400" lon="-6.1720740">
    <ele>14.2</ele>
    <time>2025-12-20T13:30:08Z</time>
   </trkpt>
   <trkpt lat="53.4445790" lon="-6.1721000">
    <ele>14.2</ele>
    <time>2025-12-20T13:30:13Z</time>
   </trkpt>
   <trkpt lat="53.4445160" lon="-6.1721420">
    <ele>14.2</ele>
    <time>2025-12-20T13:30:19Z</time>
   </trkpt>
   <trkpt lat="53.4444900" lon="-6.1722320">
    <ele>14.2</ele>
    <time>2025-12-20T13:30:24Z</time>
   </trkpt>
   <trkpt lat="53.4444180" lon="-6.1722580">
    <ele>14.2</ele>
    <time>2025-12-20T13:30:29Z</time>
   </trkpt>
   <trkpt lat="53.4443430" lon="-6.1722730">
    <ele>14.2</ele>
    <time>2025-12-20T13:30:35Z</time>
   </trkpt>
   <trkpt lat="53.4442810" lon="-6.1723100">
    <ele>14.2</ele>
    <time>2025-12-20T13:30:40Z</time>
   </trkpt>
   <trkpt lat="53.4442180" lon="-6.1723350">
    <ele>14.2</ele>
    <time>2025-12-20T13:30:45Z</time>
   </trkpt>
   <trkpt lat="53.4441540" lon="-6.1723530">
    <ele>14.2</ele>
    <time>2025-12-20T13:30:50Z</time>
   </trkpt>
   <trkpt lat="53.4440860" lon="-6.1723790">
    <ele>14.2</ele>
    <time>2025-12-20T13:30:56Z</time>
   </trkpt>
   <trkpt lat="53.4440200" lon="-6.1724000">
    <ele>14.2</ele>
    <time>2025-12-20T13:31:01Z</time>
   </trkpt>
   <trkpt lat="53.4439510" lon="-6.1724140">
    <ele>14.2</ele>
    <time>2025-12-20T13:31:06Z</time>
   </trkpt>
   <trkpt lat="53.4438850" lon="-6.1724470">
    <ele>14.2</ele>
    <time>2025-12-20T13:31:12Z</time>
   </trkpt>
   <trkpt lat="53.4438360" lon="-6.1724800">
    <ele>14.2</ele>
    <time>2025-12-20T13:31:17Z</time>
   </trkpt>
   <trkpt lat="53.4437850" lon="-6.1725000">
    <ele>14.2</ele>
    <time>2025-12-20T13:31:23Z</time>
   </trkpt>
   <trkpt lat="53.4437280" lon="-6.1725270">
    <ele>14.2</ele>
    <time>2025-12-20T13:31:28Z</time>
   </trkpt>
   <trkpt lat="53.4436700" lon="-6.1725620">
    <ele>14.2</ele>
    <time>2025-12-20T13:31:33Z</time>
   </trkpt>
   <trkpt lat="53.4436190" lon="-6.1726040">
    <ele>14.2</ele>
    <time>2025-12-20T13:31:38Z</time>
   </trkpt>
   <trkpt lat="53.4435640" lon="-6.1726490">
    <ele>14.2</ele>
    <time>2025-12-20T13:31:43Z</time>
   </trkpt>
   <trkpt lat="53.4435000" lon="-6.1726790">
    <ele>14.2</ele>
    <time>2025-12-20T13:31:49Z</time>
   </trkpt>
   <trkpt lat="53.4434180" lon="-6.1726800">
    <ele>14.2</ele>
    <time>2025-12-20T13:31:54Z</time>
   </trkpt>
   <trkpt lat="53.4433550" lon="-6.1726750">
    <ele>14.2</ele>
    <time>2025-12-20T13:31:59Z</time>
   </trkpt>
   <trkpt lat="53.4432840" lon="-6.1726830">
    <ele>14.2</ele>
    <time>2025-12-20T13:32:05Z</time>
   </trkpt>
   <trkpt lat="53.4432240" lon="-6.1726920">
    <ele>13.8</ele>
    <time>2025-12-20T13:32:11Z</time>
   </trkpt>
   <trkpt lat="53.4431660" lon="-6.1727270">
    <ele>13.6</ele>
    <time>2025-12-20T13:32:16Z</time>
   </trkpt>
   <trkpt lat="53.4431120" lon="-6.1727240">
    <ele>13.3</ele>
    <time>2025-12-20T13:32:21Z</time>
   </trkpt>
   <trkpt lat="53.4430430" lon="-6.1727290">
    <ele>13.4</ele>
    <time>2025-12-20T13:32:26Z</time>
   </trkpt>
   <trkpt lat="53.4429780" lon="-6.1727590">
    <ele>13.4</ele>
    <time>2025-12-20T13:32:31Z</time>
   </trkpt>
   <trkpt lat="53.4428990" lon="-6.1728040">
    <ele>13.1</ele>
    <time>2025-12-20T13:32:37Z</time>
   </trkpt>
   <trkpt lat="53.4428250" lon="-6.1728290">
    <ele>12.9</ele>
    <time>2025-12-20T13:32:42Z</time>
   </trkpt>
   <trkpt lat="53.4427660" lon="-6.1728360">
    <ele>12.8</ele>
    <time>2025-12-20T13:32:47Z</time>
   </trkpt>
   <trkpt lat="53.4427040" lon="-6.1728640">
    <ele>12.7</ele>
    <time>2025-12-20T13:32:53Z</time>
   </trkpt>
   <trkpt lat="53.4426540" lon="-6.1728890">
    <ele>12.7</ele>
    <time>2025-12-20T13:32:58Z</time>
   </trkpt>
   <trkpt lat="53.4426050" lon="-6.1729100">
    <ele>12.7</ele>
    <time>2025-12-20T13:33:04Z</time>
   </trkpt>
   <trkpt lat="53.4425380" lon="-6.1729120">
    <ele>12.7</ele>
    <time>2025-12-20T13:33:09Z</time>
   </trkpt>
   <trkpt lat="53.4424710" lon="-6.1729300">
    <ele>12.6</ele>
    <time>2025-12-20T13:33:14Z</time>
   </trkpt>
   <trkpt lat="53.4424150" lon="-6.1729680">
    <ele>12.3</ele>
    <time>2025-12-20T13:33:20Z</time>
   </trkpt>
   <trkpt lat="53.4423260" lon="-6.1729940">
    <ele>12.2</ele>
    <time>2025-12-20T13:33:25Z</time>
   </trkpt>
   <trkpt lat="53.4422350" lon="-6.1730270">
    <ele>12.1</ele>
    <time>2025-12-20T13:33:31Z</time>
   </trkpt>
   <trkpt lat="53.4421640" lon="-6.1730480">
    <ele>12.3</ele>
    <time>2025-12-20T13:33:36Z</time>
   </trkpt>
   <trkpt lat="53.4421020" lon="-6.1730620">
    <ele>12.2</ele>
    <time>2025-12-20T13:33:41Z</time>
   </trkpt>
   <trkpt lat="53.4420450" lon="-6.1730760">
    <ele>12.2</ele>
    <time>2025-12-20T13:33:46Z</time>
   </trkpt>
   <trkpt lat="53.4419900" lon="-6.1731110">
    <ele>12.3</ele>
    <time>2025-12-20T13:33:51Z</time>
   </trkpt>
   <trkpt lat="53.4419280" lon="-6.1731680">
    <ele>12.3</ele>
    <time>2025-12-20T13:33:56Z</time>
   </trkpt>
   <trkpt lat="53.4418720" lon="-6.1732140">
    <ele>12.6</ele>
    <time>2025-12-20T13:34:02Z</time>
   </trkpt>
   <trkpt lat="53.4418160" lon="-6.1732420">
    <ele>12.7</ele>
    <time>2025-12-20T13:34:07Z</time>
   </trkpt>
   <trkpt lat="53.4417590" lon="-6.1732710">
    <ele>12.6</ele>
    <time>2025-12-20T13:34:12Z</time>
   </trkpt>
   <trkpt lat="53.4417040" lon="-6.1733030">
    <ele>12.9</ele>
    <time>2025-12-20T13:34:17Z</time>
   </trkpt>
   <trkpt lat="53.4416470" lon="-6.1733370">
    <ele>12.9</ele>
    <time>2025-12-20T13:34:22Z</time>
   </trkpt>
   <trkpt lat="53.4415870" lon="-6.1733480">
    <ele>12.8</ele>
    <time>2025-12-20T13:34:27Z</time>
   </trkpt>
   <trkpt lat="53.4415350" lon="-6.1733740">
    <ele>13.0</ele>
    <time>2025-12-20T13:34:32Z</time>
   </trkpt>
   <trkpt lat="53.4414780" lon="-6.1733910">
    <ele>13.0</ele>
    <time>2025-12-20T13:34:37Z</time>
   </trkpt>
   <trkpt lat="53.4414290" lon="-6.1734210">
    <ele>13.1</ele>
    <time>2025-12-20T13:34:43Z</time>
   </trkpt>
   <trkpt lat="53.4413570" lon="-6.1734850">
    <ele>13.1</ele>
    <time>2025-12-20T13:34:48Z</time>
   </trkpt>
   <trkpt lat="53.4413010" lon="-6.1735240">
    <ele>13.1</ele>
    <time>2025-12-20T13:34:53Z</time>
   </trkpt>
   <trkpt lat="53.4412510" lon="-6.1735890">
    <ele>13.0</ele>
    <time>2025-12-20T13:34:58Z</time>
   </trkpt>
   <trkpt lat="53.4411910" lon="-6.1736610">
    <ele>13.3</ele>
    <time>2025-12-20T13:35:03Z</time>
   </trkpt>
   <trkpt lat="53.4411450" lon="-6.1737290">
    <ele>13.3</ele>
    <time>2025-12-20T13:35:08Z</time>
   </trkpt>
   <trkpt lat="53.4411100" lon="-6.1737840">
    <ele>13.2</ele>
    <time>2025-12-20T13:35:13Z</time>
   </trkpt>
   <trkpt lat="53.4410580" lon="-6.1738450">
    <ele>13.3</ele>
    <time>2025-12-20T13:35:19Z</time>
   </trkpt>
   <trkpt lat="53.4410010" lon="-6.1739090">
    <ele>13.4</ele>
    <time>2025-12-20T13:35:24Z</time>
   </trkpt>
   <trkpt lat="53.4409430" lon="-6.1739770">
    <ele>13.1</ele>
    <time>2025-12-20T13:35:30Z</time>
   </trkpt>
   <trkpt lat="53.4408880" lon="-6.1740660">
    <ele>12.9</ele>
    <time>2025-12-20T13:35:35Z</time>
   </trkpt>
   <trkpt lat="53.4408410" lon="-6.1741560">
    <ele>12.6</ele>
    <time>2025-12-20T13:35:41Z</time>
   </trkpt>
   <trkpt lat="53.4408030" lon="-6.1742370">
    <ele>12.0</ele>
    <time>2025-12-20T13:35:46Z</time>
   </trkpt>
   <trkpt lat="53.4407640" lon="-6.1743160">
    <ele>12.0</ele>
    <time>2025-12-20T13:35:51Z</time>
   </trkpt>
   <trkpt lat="53.4407180" lon="-6.1743750">
    <ele>12.3</ele>
    <time>2025-12-20T13:35:56Z</time>
   </trkpt>
   <trkpt lat="53.4406590" lon="-6.1744520">
    <ele>12.1</ele>
    <time>2025-12-20T13:36:01Z</time>
   </trkpt>
   <trkpt lat="53.4406120" lon="-6.1744720">
    <ele>12.0</ele>
    <time>2025-12-20T13:36:07Z</time>
   </trkpt>
   <trkpt lat="53.4405620" lon="-6.1745140">
    <ele>12.0</ele>
    <time>2025-12-20T13:37:21Z</time>
   </trkpt>
   <trkpt lat="53.4405290" lon="-6.1746090">
    <ele>11.8</ele>
    <time>2025-12-20T13:37:26Z</time>
   </trkpt>
   <trkpt lat="53.4404880" lon="-6.1747430">
    <ele>12.0</ele>
    <time>2025-12-20T13:37:32Z</time>
   </trkpt>
   <trkpt lat="53.4404630" lon="-6.1748890">
    <ele>12.7</ele>
    <time>2025-12-20T13:37:37Z</time>
   </trkpt>
   <trkpt lat="53.4404270" lon="-6.1750390">
    <ele>13.2</ele>
    <time>2025-12-20T13:37:42Z</time>
   </trkpt>
   <trkpt lat="53.4403860" lon="-6.1751520">
    <ele>13.0</ele>
    <time>2025-12-20T13:37:48Z</time>
   </trkpt>
   <trkpt lat="53.4403570" lon="-6.1752540">
    <ele>12.8</ele>
    <time>2025-12-20T13:37:53Z</time>
   </trkpt>
   <trkpt lat="53.4403310" lon="-6.1753670">
    <ele>12.0</ele>
    <time>2025-12-20T13:37:59Z</time>
   </trkpt>
   <trkpt lat="53.4403070" lon="-6.1754780">
    <ele>11.5</ele>
    <time>2025-12-20T13:38:04Z</time>
   </trkpt>
   <trkpt lat="53.4402480" lon="-6.1755200">
    <ele>11.2</ele>
    <time>2025-12-20T13:38:09Z</time>
   </trkpt>
   <trkpt lat="53.4401880" lon="-6.1754580">
    <ele>11.0</ele>
    <time>2025-12-20T13:38:15Z</time>
   </trkpt>
   <trkpt lat="53.4401400" lon="-6.1754030">
    <ele>10.9</ele>
    <time>2025-12-20T13:38:20Z</time>
   </trkpt>
   <trkpt lat="53.4400720" lon="-6.1753470">
    <ele>10.7</ele>
    <time>2025-12-20T13:38:26Z</time>
   </trkpt>
   <trkpt lat="53.4400050" lon="-6.1753100">
    <ele>10.5</ele>
    <time>2025-12-20T13:38:31Z</time>
   </trkpt>
   <trkpt lat="53.4399480" lon="-6.1752470">
    <ele>10.7</ele>
    <time>2025-12-20T13:38:37Z</time>
   </trkpt>
   <trkpt lat="53.4399030" lon="-6.1751490">
    <ele>10.8</ele>
    <time>2025-12-20T13:38:42Z</time>
   </trkpt>
   <trkpt lat="53.4398690" lon="-6.1750530">
    <ele>10.8</ele>
    <time>2025-12-20T13:38:47Z</time>
   </trkpt>
   <trkpt lat="53.4398460" lon="-6.1749810">
    <ele>11.1</ele>
    <time>2025-12-20T13:38:54Z</time>
   </trkpt>
   <trkpt lat="53.4398110" lon="-6.1748490">
    <ele>10.9</ele>
    <time>2025-12-20T13:38:59Z</time>
   </trkpt>
   <trkpt lat="53.4397820" lon="-6.1747120">
    <ele>10.9</ele>
    <time>2025-12-20T13:39:05Z</time>
   </trkpt>
   <trkpt lat="53.4397310" lon="-6.1746130">
    <ele>10.9</ele>
    <time>2025-12-20T13:39:10Z</time>
   </trkpt>
   <trkpt lat="53.4396830" lon="-6.1745500">
    <ele>10.9</ele>
    <time>2025-12-20T13:39:15Z</time>
   </trkpt>
   <trkpt lat="53.4396540" lon="-6.1744770">
    <ele>10.9</ele>
    <time>2025-12-20T13:39:20Z</time>
   </trkpt>
   <trkpt lat="53.4396300" lon="-6.1744030">
    <ele>10.9</ele>
    <time>2025-12-20T13:39:25Z</time>
   </trkpt>
   <trkpt lat="53.4395540" lon="-6.1743620">
    <ele>10.9</ele>
    <time>2025-12-20T13:39:31Z</time>
   </trkpt>
   <trkpt lat="53.4394980" lon="-6.1743100">
    <ele>10.9</ele>
    <time>2025-12-20T13:39:36Z</time>
   </trkpt>
   <trkpt lat="53.4394670" lon="-6.1742250">
    <ele>10.9</ele>
    <time>2025-12-20T13:39:41Z</time>
   </trkpt>
   <trkpt lat="53.4394490" lon="-6.1741450">
    <ele>10.9</ele>
    <time>2025-12-20T13:39:46Z</time>
   </trkpt>
   <trkpt lat="53.4394220" lon="-6.1740590">
    <ele>10.9</ele>
    <time>2025-12-20T13:39:52Z</time>
   </trkpt>
   <trkpt lat="53.4393960" lon="-6.1739470">
    <ele>10.6</ele>
    <time>2025-12-20T13:39:57Z</time>
   </trkpt>
   <trkpt lat="53.4393880" lon="-6.1737310">
    <ele>10.9</ele>
    <time>2025-12-20T13:40:02Z</time>
   </trkpt>
   <trkpt lat="53.4393450" lon="-6.1735930">
    <ele>11.2</ele>
    <time>2025-12-20T13:40:08Z</time>
   </trkpt>
   <trkpt lat="53.4393340" lon="-6.1734550">
    <ele>11.1</ele>
    <time>2025-12-20T13:40:13Z</time>
   </trkpt>
   <trkpt lat="53.4393130" lon="-6.1733390">
    <ele>11.0</ele>
    <time>2025-12-20T13:40:19Z</time>
   </trkpt>
   <trkpt lat="53.4392760" lon="-6.1732250">
    <ele>11.1</ele>
    <time>2025-12-20T13:40:24Z</time>
   </trkpt>
   <trkpt lat="53.4392630" lon="-6.1731060">
    <ele>11.2</ele>
    <time>2025-12-20T13:40:30Z</time>
   </trkpt>
   <trkpt lat="53.4392670" lon="-6.1729900">
    <ele>10.9</ele>
    <time>2025-12-20T13:40:35Z</time>
   </trkpt>
   <trkpt lat="53.4392670" lon="-6.1728810">
    <ele>10.9</ele>
    <time>2025-12-20T13:40:41Z</time>
   </trkpt>
   <trkpt lat="53.4392590" lon="-6.1727810">
    <ele>11.2</ele>
    <time>2025-12-20T13:40:46Z</time>
   </trkpt>
   <trkpt lat="53.4392590" lon="-6.1726870">
    <ele>10.9</ele>
    <time>2025-12-20T13:40:52Z</time>
   </trkpt>
   <trkpt lat="53.4392480" lon="-6.1725770">
    <ele>10.5</ele>
    <time>2025-12-20T13:40:57Z</time>
   </trkpt>
   <trkpt lat="53.4392380" lon="-6.1724250">
    <ele>10.6</ele>
    <time>2025-12-20T13:41:03Z</time>
   </trkpt>
   <trkpt lat="53.4392250" lon="-6.1722880">
    <ele>10.9</ele>
    <time>2025-12-20T13:41:08Z</time>
   </trkpt>
   <trkpt lat="53.4391940" lon="-6.1721920">
    <ele>11.3</ele>
    <time>2025-12-20T13:41:14Z</time>
   </trkpt>
   <trkpt lat="53.4391880" lon="-6.1720930">
    <ele>11.3</ele>
    <time>2025-12-20T13:41:19Z</time>
   </trkpt>
   <trkpt lat="53.4391810" lon="-6.1719980">
    <ele>11.3</ele>
    <time>2025-12-20T13:41:24Z</time>
   </trkpt>
   <trkpt lat="53.4391620" lon="-6.1719190">
    <ele>11.3</ele>
    <time>2025-12-20T13:41:29Z</time>
   </trkpt>
   <trkpt lat="53.4391400" lon="-6.1718520">
    <ele>11.3</ele>
    <time>2025-12-20T13:41:34Z</time>
   </trkpt>
   <trkpt lat="53.4391140" lon="-6.1717780">
    <ele>11.5</ele>
    <time>2025-12-20T13:41:39Z</time>
   </trkpt>
   <trkpt lat="53.4390990" lon="-6.1716710">
    <ele>11.7</ele>
    <time>2025-12-20T13:41:44Z</time>
   </trkpt>
   <trkpt lat="53.4391280" lon="-6.1715640">
    <ele>11.6</ele>
    <time>2025-12-20T13:41:50Z</time>
   </trkpt>
   <trkpt lat="53.4391250" lon="-6.1714870">
    <ele>11.7</ele>
    <time>2025-12-20T13:41:55Z</time>
   </trkpt>
   <trkpt lat="53.4390980" lon="-6.1714240">
    <ele>11.7</ele>
    <time>2025-12-20T13:42:01Z</time>
   </trkpt>
   <trkpt lat="53.4390650" lon="-6.1713230">
    <ele>12.0</ele>
    <time>2025-12-20T13:42:06Z</time>
   </trkpt>
   <trkpt lat="53.4390420" lon="-6.1712320">
    <ele>12.1</ele>
    <time>2025-12-20T13:42:11Z</time>
   </trkpt>
   <trkpt lat="53.4390520" lon="-6.1711010">
    <ele>11.7</ele>
    <time>2025-12-20T13:42:16Z</time>
   </trkpt>
   <trkpt lat="53.4390920" lon="-6.1709130">
    <ele>11.6</ele>
    <time>2025-12-20T13:42:22Z</time>
   </trkpt>
   <trkpt lat="53.4391040" lon="-6.1707870">
    <ele>11.7</ele>
    <time>2025-12-20T13:42:27Z</time>
   </trkpt>
   <trkpt lat="53.4390900" lon="-6.1706420">
    <ele>11.6</ele>
    <time>2025-12-20T13:42:33Z</time>
   </trkpt>
   <trkpt lat="53.4390900" lon="-6.1705160">
    <ele>11.8</ele>
    <time>2025-12-20T13:42:38Z</time>
   </trkpt>
   <trkpt lat="53.4390760" lon="-6.1703410">
    <ele>12.0</ele>
    <time>2025-12-20T13:42:43Z</time>
   </trkpt>
   <trkpt lat="53.4390280" lon="-6.1702270">
    <ele>11.7</ele>
    <time>2025-12-20T13:42:49Z</time>
   </trkpt>
   <trkpt lat="53.4389780" lon="-6.1701090">
    <ele>11.6</ele>
    <time>2025-12-20T13:42:54Z</time>
   </trkpt>
   <trkpt lat="53.4389680" lon="-6.1700120">
    <ele>12.0</ele>
    <time>2025-12-20T13:42:59Z</time>
   </trkpt>
   <trkpt lat="53.4390180" lon="-6.1699070">
    <ele>12.2</ele>
    <time>2025-12-20T13:43:05Z</time>
   </trkpt>
   <trkpt lat="53.4390650" lon="-6.1698500">
    <ele>12.3</ele>
    <time>2025-12-20T13:43:10Z</time>
   </trkpt>
   <trkpt lat="53.4391050" lon="-6.1697520">
    <ele>12.3</ele>
    <time>2025-12-20T13:43:15Z</time>
   </trkpt>
   <trkpt lat="53.4391090" lon="-6.1696080">
    <ele>12.3</ele>
    <time>2025-12-20T13:43:20Z</time>
   </trkpt>
   <trkpt lat="53.4391120" lon="-6.1694970">
    <ele>12.3</ele>
    <time>2025-12-20T13:43:25Z</time>
   </trkpt>
   <trkpt lat="53.4391200" lon="-6.1693970">
    <ele>12.2</ele>
    <time>2025-12-20T13:43:30Z</time>
   </trkpt>
   <trkpt lat="53.4391230" lon="-6.1692840">
    <ele>12.3</ele>
    <time>2025-12-20T13:43:35Z</time>
   </trkpt>
   <trkpt lat="53.4391230" lon="-6.1691600">
    <ele>12.3</ele>
    <time>2025-12-20T13:43:41Z</time>
   </trkpt>
   <trkpt lat="53.4391270" lon="-6.1690510">
    <ele>12.3</ele>
    <time>2025-12-20T13:43:46Z</time>
   </trkpt>
   <trkpt lat="53.4391540" lon="-6.1689590">
    <ele>12.3</ele>
    <time>2025-12-20T13:43:51Z</time>
   </trkpt>
   <trkpt lat="53.4391970" lon="-6.1688650">
    <ele>12.3</ele>
    <time>2025-12-20T13:43:57Z</time>
   </trkpt>
   <trkpt lat="53.4392150" lon="-6.1687720">
    <ele>12.3</ele>
    <time>2025-12-20T13:44:02Z</time>
   </trkpt>
   <trkpt lat="53.4392060" lon="-6.1686650">
    <ele>12.3</ele>
    <time>2025-12-20T13:44:07Z</time>
   </trkpt>
   <trkpt lat="53.4391930" lon="-6.1685650">
    <ele>12.3</ele>
    <time>2025-12-20T13:44:12Z</time>
   </trkpt>
   <trkpt lat="53.4392140" lon="-6.1684580">
    <ele>12.3</ele>
    <time>2025-12-20T13:44:17Z</time>
   </trkpt>
   <trkpt lat="53.4392370" lon="-6.1683700">
    <ele>12.3</ele>
    <time>2025-12-20T13:44:22Z</time>
   </trkpt>
   <trkpt lat="53.4392700" lon="-6.1683050">
    <ele>12.3</ele>
    <time>2025-12-20T13:44:27Z</time>
   </trkpt>
   <trkpt lat="53.4392910" lon="-6.1682340">
    <ele>12.3</ele>
    <time>2025-12-20T13:44:33Z</time>
   </trkpt>
   <trkpt lat="53.4393160" lon="-6.1681240">
    <ele>12.3</ele>
    <time>2025-12-20T13:44:38Z</time>
   </trkpt>
   <trkpt lat="53.4393310" lon="-6.1680510">
    <ele>13.4</ele>
    <time>2025-12-20T13:44:43Z</time>
   </trkpt>
   <trkpt lat="53.4393510" lon="-6.1679810">
    <ele>14.1</ele>
    <time>2025-12-20T13:44:50Z</time>
   </trkpt>
   <trkpt lat="53.4393830" lon="-6.1678360">
    <ele>14.4</ele>
    <time>2025-12-20T13:44:55Z</time>
   </trkpt>
   <trkpt lat="53.4394380" lon="-6.1676690">
    <ele>14.7</ele>
    <time>2025-12-20T13:45:01Z</time>
   </trkpt>
   <trkpt lat="53.4394460" lon="-6.1675230">
    <ele>14.9</ele>
    <time>2025-12-20T13:45:06Z</time>
   </trkpt>
   <trkpt lat="53.4394560" lon="-6.1674180">
    <ele>15.2</ele>
    <time>2025-12-20T13:45:11Z</time>
   </trkpt>
   <trkpt lat="53.4394870" lon="-6.1673180">
    <ele>15.4</ele>
    <time>2025-12-20T13:45:16Z</time>
   </trkpt>
   <trkpt lat="53.4395140" lon="-6.1672220">
    <ele>15.7</ele>
    <time>2025-12-20T13:45:21Z</time>
   </trkpt>
   <trkpt lat="53.4395380" lon="-6.1671330">
    <ele>15.8</ele>
    <time>2025-12-20T13:45:26Z</time>
   </trkpt>
   <trkpt lat="53.4395640" lon="-6.1670490">
    <ele>15.9</ele>
    <time>2025-12-20T13:45:31Z</time>
   </trkpt>
   <trkpt lat="53.4395710" lon="-6.1669210">
    <ele>15.7</ele>
    <time>2025-12-20T13:45:37Z</time>
   </trkpt>
   <trkpt lat="53.4395840" lon="-6.1668170">
    <ele>15.2</ele>
    <time>2025-12-20T13:45:42Z</time>
   </trkpt>
   <trkpt lat="53.4396250" lon="-6.1667320">
    <ele>14.8</ele>
    <time>2025-12-20T13:45:47Z</time>
   </trkpt>
   <trkpt lat="53.4396710" lon="-6.1666370">
    <ele>14.9</ele>
    <time>2025-12-20T13:45:52Z</time>
   </trkpt>
   <trkpt lat="53.4397100" lon="-6.1665570">
    <ele>15.1</ele>
    <time>2025-12-20T13:45:57Z</time>
   </trkpt>
   <trkpt lat="53.4397470" lon="-6.1664710">
    <ele>15.2</ele>
    <time>2025-12-20T13:46:03Z</time>
   </trkpt>
   <trkpt lat="53.4398200" lon="-6.1664420">
    <ele>15.5</ele>
    <time>2025-12-20T13:46:08Z</time>
   </trkpt>
   <trkpt lat="53.4398710" lon="-6.1663920">
    <ele>15.0</ele>
    <time>2025-12-20T13:46:13Z</time>
   </trkpt>
   <trkpt lat="53.4398820" lon="-6.1662590">
    <ele>15.7</ele>
    <time>2025-12-20T13:46:18Z</time>
   </trkpt>
   <trkpt lat="53.4398690" lon="-6.1661240">
    <ele>15.7</ele>
    <time>2025-12-20T13:46:23Z</time>
   </trkpt>
   <trkpt lat="53.4398810" lon="-6.1660270">
    <ele>15.6</ele>
    <time>2025-12-20T13:46:28Z</time>
   </trkpt>
   <trkpt lat="53.4399090" lon="-6.1659290">
    <ele>15.4</ele>
    <time>2025-12-20T13:46:34Z</time>
   </trkpt>
   <trkpt lat="53.4399250" lon="-6.1658140">
    <ele>15.6</ele>
    <time>2025-12-20T13:46:39Z</time>
   </trkpt>
   <trkpt lat="53.4399610" lon="-6.1657330">
    <ele>14.8</ele>
    <time>2025-12-20T13:46:45Z</time>
   </trkpt>
   <trkpt lat="53.4399930" lon="-6.1656620">
    <ele>15.2</ele>
    <time>2025-12-20T13:46:51Z</time>
   </trkpt>
   <trkpt lat="53.4400240" lon="-6.1655880">
    <ele>15.2</ele>
    <time>2025-12-20T13:46:56Z</time>
   </trkpt>
   <trkpt lat="53.4400580" lon="-6.1654950">
    <ele>15.2</ele>
    <time>2025-12-20T13:47:01Z</time>
   </trkpt>
   <trkpt lat="53.4400830" lon="-6.1653950">
    <ele>15.3</ele>
    <time>2025-12-20T13:47:07Z</time>
   </trkpt>
   <trkpt lat="53.4401080" lon="-6.1653090">
    <ele>15.5</ele>
    <time>2025-12-20T13:47:12Z</time>
   </trkpt>
   <trkpt lat="53.4401430" lon="-6.1652530">
    <ele>15.6</ele>
    <time>2025-12-20T13:47:18Z</time>
   </trkpt>
   <trkpt lat="53.4401840" lon="-6.1652200">
    <ele>16.5</ele>
    <time>2025-12-20T13:48:06Z</time>
   </trkpt>
   <trkpt lat="53.4402320" lon="-6.1651070">
    <ele>16.7</ele>
    <time>2025-12-20T13:48:11Z</time>
   </trkpt>
   <trkpt lat="53.4402550" lon="-6.1650040">
    <ele>16.8</ele>
    <time>2025-12-20T13:48:16Z</time>
   </trkpt>
   <trkpt lat="53.4402900" lon="-6.1649210">
    <ele>16.8</ele>
    <time>2025-12-20T13:48:21Z</time>
   </trkpt>
   <trkpt lat="53.4403430" lon="-6.1648810">
    <ele>16.7</ele>
    <time>2025-12-20T13:48:26Z</time>
   </trkpt>
   <trkpt lat="53.4403950" lon="-6.1648430">
    <ele>16.7</ele>
    <time>2025-12-20T13:48:32Z</time>
   </trkpt>
   <trkpt lat="53.4404170" lon="-6.1647330">
    <ele>16.7</ele>
    <time>2025-12-20T13:48:37Z</time>
   </trkpt>
   <trkpt lat="53.4404200" lon="-6.1646210">
    <ele>16.7</ele>
    <time>2025-12-20T13:48:42Z</time>
   </trkpt>
   <trkpt lat="53.4403980" lon="-6.1645260">
    <ele>16.7</ele>
    <time>2025-12-20T13:48:47Z</time>
   </trkpt>
   <trkpt lat="53.4403730" lon="-6.1644390">
    <ele>16.8</ele>
    <time>2025-12-20T13:48:52Z</time>
   </trkpt>
   <trkpt lat="53.4403600" lon="-6.1643270">
    <ele>16.9</ele>
    <time>2025-12-20T13:48:57Z</time>
   </trkpt>
   <trkpt lat="53.4403560" lon="-6.1642260">
    <ele>16.9</ele>
    <time>2025-12-20T13:49:02Z</time>
   </trkpt>
   <trkpt lat="53.4403230" lon="-6.1641320">
    <ele>17.0</ele>
    <time>2025-12-20T13:49:08Z</time>
   </trkpt>
   <trkpt lat="53.4402720" lon="-6.1640600">
    <ele>17.1</ele>
    <time>2025-12-20T13:49:13Z</time>
   </trkpt>
   <trkpt lat="53.4402430" lon="-6.1639830">
    <ele>17.3</ele>
    <time>2025-12-20T13:49:18Z</time>
   </trkpt>
   <trkpt lat="53.4402140" lon="-6.1639010">
    <ele>17.3</ele>
    <time>2025-12-20T13:49:23Z</time>
   </trkpt>
   <trkpt lat="53.4401850" lon="-6.1638360">
    <ele>17.2</ele>
    <time>2025-12-20T13:49:28Z</time>
   </trkpt>
   <trkpt lat="53.4401820" lon="-6.1637610">
    <ele>17.1</ele>
    <time>2025-12-20T13:49:33Z</time>
   </trkpt>
   <trkpt lat="53.4402190" lon="-6.1637030">
    <ele>17.3</ele>
    <time>2025-12-20T13:49:38Z</time>
   </trkpt>
   <trkpt lat="53.4402570" lon="-6.1636570">
    <ele>17.4</ele>
    <time>2025-12-20T13:49:43Z</time>
   </trkpt>
   <trkpt lat="53.4403120" lon="-6.1635070">
    <ele>17.6</ele>
    <time>2025-12-20T13:49:48Z</time>
   </trkpt>
   <trkpt lat="53.4403430" lon="-6.1633320">
    <ele>17.7</ele>
    <time>2025-12-20T13:49:54Z</time>
   </trkpt>
   <trkpt lat="53.4403710" lon="-6.1631710">
    <ele>17.8</ele>
    <time>2025-12-20T13:49:59Z</time>
   </trkpt>
   <trkpt lat="53.4403770" lon="-6.1630360">
    <ele>17.9</ele>
    <time>2025-12-20T13:50:04Z</time>
   </trkpt>
   <trkpt lat="53.4403910" lon="-6.1629380">
    <ele>17.8</ele>
    <time>2025-12-20T13:50:09Z</time>
   </trkpt>
   <trkpt lat="53.4404230" lon="-6.1628500">
    <ele>17.8</ele>
    <time>2025-12-20T13:50:14Z</time>
   </trkpt>
   <trkpt lat="53.4404310" lon="-6.1627710">
    <ele>17.9</ele>
    <time>2025-12-20T13:50:20Z</time>
   </trkpt>
   <trkpt lat="53.4404470" lon="-6.1626960">
    <ele>18.0</ele>
    <time>2025-12-20T13:50:25Z</time>
   </trkpt>
   <trkpt lat="53.4404920" lon="-6.1626610">
    <ele>18.1</ele>
    <time>2025-12-20T13:50:32Z</time>
   </trkpt>
   <trkpt lat="53.4405510" lon="-6.1625910">
    <ele>18.1</ele>
    <time>2025-12-20T13:50:37Z</time>
   </trkpt>
   <trkpt lat="53.4405770" lon="-6.1624650">
    <ele>18.2</ele>
    <time>2025-12-20T13:50:43Z</time>
   </trkpt>
   <trkpt lat="53.4405950" lon="-6.1623370">
    <ele>18.1</ele>
    <time>2025-12-20T13:50:48Z</time>
   </trkpt>
   <trkpt lat="53.4406280" lon="-6.1622250">
    <ele>17.9</ele>
    <time>2025-12-20T13:50:53Z</time>
   </trkpt>
   <trkpt lat="53.4406420" lon="-6.1621240">
    <ele>17.8</ele>
    <time>2025-12-20T13:50:58Z</time>
   </trkpt>
   <trkpt lat="53.4406540" lon="-6.1620310">
    <ele>17.8</ele>
    <time>2025-12-20T13:51:03Z</time>
   </trkpt>
   <trkpt lat="53.4406600" lon="-6.1619240">
    <ele>17.9</ele>
    <time>2025-12-20T13:51:09Z</time>
   </trkpt>
   <trkpt lat="53.4406890" lon="-6.1618400">
    <ele>18.0</ele>
    <time>2025-12-20T13:51:14Z</time>
   </trkpt>
   <trkpt lat="53.4407150" lon="-6.1617750">
    <ele>18.0</ele>
    <time>2025-12-20T13:51:20Z</time>
   </trkpt>
   <trkpt lat="53.4407340" lon="-6.1617020">
    <ele>18.0</ele>
    <time>2025-12-20T13:51:25Z</time>
   </trkpt>
   <trkpt lat="53.4407790" lon="-6.1616120">
    <ele>18.0</ele>
    <time>2025-12-20T13:51:30Z</time>
   </trkpt>
   <trkpt lat="53.4408260" lon="-6.1615170">
    <ele>18.0</ele>
    <time>2025-12-20T13:51:35Z</time>
   </trkpt>
   <trkpt lat="53.4408690" lon="-6.1614500">
    <ele>18.0</ele>
    <time>2025-12-20T13:51:40Z</time>
   </trkpt>
   <trkpt lat="53.4409120" lon="-6.1613650">
    <ele>18.0</ele>
    <time>2025-12-20T13:51:45Z</time>
   </trkpt>
   <trkpt lat="53.4409540" lon="-6.1612730">
    <ele>17.9</ele>
    <time>2025-12-20T13:51:51Z</time>
   </trkpt>
   <trkpt lat="53.4409870" lon="-6.1611710">
    <ele>18.0</ele>
    <time>2025-12-20T13:51:56Z</time>
   </trkpt>
   <trkpt lat="53.4409900" lon="-6.1610760">
    <ele>18.0</ele>
    <time>2025-12-20T13:52:01Z</time>
   </trkpt>
   <trkpt lat="53.4410230" lon="-6.1609890">
    <ele>18.0</ele>
    <time>2025-12-20T13:52:06Z</time>
   </trkpt>
   <trkpt lat="53.4410700" lon="-6.1609200">
    <ele>18.0</ele>
    <time>2025-12-20T13:52:11Z</time>
   </trkpt>
   <trkpt lat="53.4411070" lon="-6.1608640">
    <ele>18.0</ele>
    <time>2025-12-20T13:52:16Z</time>
   </trkpt>
   <trkpt lat="53.4411390" lon="-6.1607800">
    <ele>18.0</ele>
    <time>2025-12-20T13:52:22Z</time>
   </trkpt>
   <trkpt lat="53.4411730" lon="-6.1607020">
    <ele>18.0</ele>
    <time>2025-12-20T13:52:27Z</time>
   </trkpt>
   <trkpt lat="53.4412080" lon="-6.1606510">
    <ele>18.0</ele>
    <time>2025-12-20T13:52:32Z</time>
   </trkpt>
   <trkpt lat="53.4412430" lon="-6.1605650">
    <ele>18.0</ele>
    <time>2025-12-20T13:52:37Z</time>
   </trkpt>
   <trkpt lat="53.4412800" lon="-6.1604760">
    <ele>18.0</ele>
    <time>2025-12-20T13:52:43Z</time>
   </trkpt>
   <trkpt lat="53.4413230" lon="-6.1603910">
    <ele>18.2</ele>
    <time>2025-12-20T13:52:48Z</time>
   </trkpt>
   <trkpt lat="53.4413740" lon="-6.1602870">
    <ele>18.7</ele>
    <time>2025-12-20T13:52:53Z</time>
   </trkpt>
   <trkpt lat="53.4414150" lon="-6.1601990">
    <ele>19.5</ele>
    <time>2025-12-20T13:52:58Z</time>
   </trkpt>
   <trkpt lat="53.4414730" lon="-6.1601340">
    <ele>20.1</ele>
    <time>2025-12-20T13:53:04Z</time>
   </trkpt>
   <trkpt lat="53.4415160" lon="-6.1600540">
    <ele>20.1</ele>
    <time>2025-12-20T13:53:09Z</time>
   </trkpt>
   <trkpt lat="53.4415370" lon="-6.1599590">
    <ele>20.0</ele>
    <time>2025-12-20T13:53:14Z</time>
   </trkpt>
   <trkpt lat="53.4415410" lon="-6.1598800">
    <ele>20.1</ele>
    <time>2025-12-20T13:53:19Z</time>
   </trkpt>
   <trkpt lat="53.4415430" lon="-6.1597730">
    <ele>20.2</ele>
    <time>2025-12-20T13:53:25Z</time>
   </trkpt>
   <trkpt lat="53.4415640" lon="-6.1596730">
    <ele>20.3</ele>
    <time>2025-12-20T13:53:30Z</time>
   </trkpt>
   <trkpt lat="53.4416150" lon="-6.1595910">
    <ele>20.4</ele>
    <time>2025-12-20T13:53:35Z</time>
   </trkpt>
   <trkpt lat="53.4416640" lon="-6.1595400">
    <ele>20.3</ele>
    <time>2025-12-20T13:53:40Z</time>
   </trkpt>
   <trkpt lat="53.4416970" lon="-6.1594850">
    <ele>20.5</ele>
    <time>2025-12-20T13:53:45Z</time>
   </trkpt>
   <trkpt lat="53.4417700" lon="-6.1593980">
    <ele>20.6</ele>
    <time>2025-12-20T13:53:50Z</time>
   </trkpt>
   <trkpt lat="53.4418260" lon="-6.1593230">
    <ele>20.7</ele>
    <time>2025-12-20T13:53:56Z</time>
   </trkpt>
   <trkpt lat="53.4418400" lon="-6.1592000">
    <ele>20.8</ele>
    <time>2025-12-20T13:54:01Z</time>
   </trkpt>
   <trkpt lat="53.4418600" lon="-6.1591060">
    <ele>20.9</ele>
    <time>2025-12-20T13:54:06Z</time>
   </trkpt>
   <trkpt lat="53.4418940" lon="-6.1590550">
    <ele>20.6</ele>
    <time>2025-12-20T13:54:15Z</time>
   </trkpt>
   <trkpt lat="53.4419160" lon="-6.1589720">
    <ele>21.7</ele>
    <time>2025-12-20T13:54:21Z</time>
   </trkpt>
   <trkpt lat="53.4419730" lon="-6.1588260">
    <ele>22.3</ele>
    <time>2025-12-20T13:54:26Z</time>
   </trkpt>
   <trkpt lat="53.4420320" lon="-6.1587260">
    <ele>22.5</ele>
    <time>2025-12-20T13:54:31Z</time>
   </trkpt>
   <trkpt lat="53.4420780" lon="-6.1586630">
    <ele>22.6</ele>
    <time>2025-12-20T13:54:36Z</time>
   </trkpt>
   <trkpt lat="53.4421260" lon="-6.1585980">
    <ele>22.6</ele>
    <time>2025-12-20T13:54:41Z</time>
   </trkpt>
   <trkpt lat="53.4421840" lon="-6.1585260">
    <ele>22.6</ele>
    <time>2025-12-20T13:54:46Z</time>
   </trkpt>
   <trkpt lat="53.4422240" lon="-6.1584360">
    <ele>22.6</ele>
    <time>2025-12-20T13:54:52Z</time>
   </trkpt>
   <trkpt lat="53.4422440" lon="-6.1583400">
    <ele>22.6</ele>
    <time>2025-12-20T13:54:57Z</time>
   </trkpt>
   <trkpt lat="53.4422910" lon="-6.1582690">
    <ele>22.6</ele>
    <time>2025-12-20T13:55:02Z</time>
   </trkpt>
   <trkpt lat="53.4423430" lon="-6.1581860">
    <ele>22.6</ele>
    <time>2025-12-20T13:55:07Z</time>
   </trkpt>
   <trkpt lat="53.4423950" lon="-6.1581260">
    <ele>22.6</ele>
    <time>2025-12-20T13:55:12Z</time>
   </trkpt>
   <trkpt lat="53.4424280" lon="-6.1580700">
    <ele>22.6</ele>
    <time>2025-12-20T13:55:27Z</time>
   </trkpt>
   <trkpt lat="53.4424760" lon="-6.1580450">
    <ele>22.7</ele>
    <time>2025-12-20T13:55:32Z</time>
   </trkpt>
   <trkpt lat="53.4425400" lon="-6.1580030">
    <ele>22.7</ele>
    <time>2025-12-20T13:55:37Z</time>
   </trkpt>
   <trkpt lat="53.4425830" lon="-6.1579750">
    <ele>22.7</ele>
    <time>2025-12-20T13:55:43Z</time>
   </trkpt>
   <trkpt lat="53.4426320" lon="-6.1579200">
    <ele>22.7</ele>
    <time>2025-12-20T13:55:48Z</time>
   </trkpt>
   <trkpt lat="53.4427030" lon="-6.1578330">
    <ele>22.7</ele>
    <time>2025-12-20T13:55:53Z</time>
   </trkpt>
   <trkpt lat="53.4427850" lon="-6.1577860">
    <ele>22.7</ele>
    <time>2025-12-20T13:55:58Z</time>
   </trkpt>
   <trkpt lat="53.4428610" lon="-6.1577510">
    <ele>22.7</ele>
    <time>2025-12-20T13:56:03Z</time>
   </trkpt>
   <trkpt lat="53.4429630" lon="-6.1576890">
    <ele>22.7</ele>
    <time>2025-12-20T13:56:08Z</time>
   </trkpt>
   <trkpt lat="53.4430480" lon="-6.1576730">
    <ele>22.7</ele>
    <time>2025-12-20T13:56:13Z</time>
   </trkpt>
   <trkpt lat="53.4430960" lon="-6.1576890">
    <ele>22.7</ele>
    <time>2025-12-20T13:56:19Z</time>
   </trkpt>
   <trkpt lat="53.4431450" lon="-6.1577320">
    <ele>22.7</ele>
    <time>2025-12-20T13:56:24Z</time>
   </trkpt>
   <trkpt lat="53.4432050" lon="-6.1577930">
    <ele>22.7</ele>
    <time>2025-12-20T13:56:29Z</time>
   </trkpt>
   <trkpt lat="53.4432640" lon="-6.1578400">
    <ele>22.7</ele>
    <time>2025-12-20T13:56:34Z</time>
   </trkpt>
   <trkpt lat="53.4433320" lon="-6.1578350">
    <ele>22.7</ele>
    <time>2025-12-20T13:56:40Z</time>
   </trkpt>
   <trkpt lat="53.4433840" lon="-6.1578370">
    <ele>22.7</ele>
    <time>2025-12-20T13:56:45Z</time>
   </trkpt>
   <trkpt lat="53.4434310" lon="-6.1578540">
    <ele>22.7</ele>
    <time>2025-12-20T13:56:50Z</time>
   </trkpt>
   <trkpt lat="53.4434970" lon="-6.1578630">
    <ele>22.7</ele>
    <time>2025-12-20T13:56:55Z</time>
   </trkpt>
   <trkpt lat="53.4435570" lon="-6.1579030">
    <ele>22.7</ele>
    <time>2025-12-20T13:57:00Z</time>
   </trkpt>
   <trkpt lat="53.4436250" lon="-6.1579410">
    <ele>22.7</ele>
    <time>2025-12-20T13:57:06Z</time>
   </trkpt>
   <trkpt lat="53.4436760" lon="-6.1579680">
    <ele>22.8</ele>
    <time>2025-12-20T13:57:11Z</time>
   </trkpt>
   <trkpt lat="53.4437470" lon="-6.1580080">
    <ele>22.8</ele>
    <time>2025-12-20T13:57:16Z</time>
   </trkpt>
   <trkpt lat="53.4438260" lon="-6.1580380">
    <ele>22.7</ele>
    <time>2025-12-20T13:57:21Z</time>
   </trkpt>
   <trkpt lat="53.4438860" lon="-6.1580850">
    <ele>22.9</ele>
    <time>2025-12-20T13:57:26Z</time>
   </trkpt>
   <trkpt lat="53.4439410" lon="-6.1581430">
    <ele>23.0</ele>
    <time>2025-12-20T13:57:31Z</time>
   </trkpt>
   <trkpt lat="53.4440050" lon="-6.1581740">
    <ele>22.7</ele>
    <time>2025-12-20T13:57:37Z</time>
   </trkpt>
   <trkpt lat="53.4440740" lon="-6.1581840">
    <ele>22.4</ele>
    <time>2025-12-20T13:57:42Z</time>
   </trkpt>
   <trkpt lat="53.4441210" lon="-6.1581750">
    <ele>22.2</ele>
    <time>2025-12-20T13:57:47Z</time>
   </trkpt>
   <trkpt lat="53.4441650" lon="-6.1581970">
    <ele>22.2</ele>
    <time>2025-12-20T13:57:55Z</time>
   </trkpt>
   <trkpt lat="53.4442140" lon="-6.1582510">
    <ele>22.2</ele>
    <time>2025-12-20T13:58:00Z</time>
   </trkpt>
   <trkpt lat="53.4442350" lon="-6.1581680">
    <ele>22.2</ele>
    <time>2025-12-20T13:58:10Z</time>
   </trkpt>
   <trkpt lat="53.4442830" lon="-6.1580170">
    <ele>22.4</ele>
    <time>2025-12-20T13:58:15Z</time>
   </trkpt>
   <trkpt lat="53.4443370" lon="-6.1578940">
    <ele>22.4</ele>
    <time>2025-12-20T13:58:20Z</time>
   </trkpt>
   <trkpt lat="53.4443770" lon="-6.1578500">
    <ele>22.5</ele>
    <time>2025-12-20T13:58:25Z</time>
   </trkpt>
   <trkpt lat="53.4444220" lon="-6.1578470">
    <ele>22.4</ele>
    <time>2025-12-20T13:58:30Z</time>
   </trkpt>
   <trkpt lat="53.4444680" lon="-6.1578670">
    <ele>22.3</ele>
    <time>2025-12-20T13:58:39Z</time>
   </trkpt>
   <trkpt lat="53.4445150" lon="-6.1578840">
    <ele>22.4</ele>
    <time>2025-12-20T13:58:49Z</time>
   </trkpt>
   <trkpt lat="53.4445660" lon="-6.1579140">
    <ele>22.1</ele>
    <time>2025-12-20T13:58:58Z</time>
   </trkpt>
   <trkpt lat="53.4446470" lon="-6.1579670">
    <ele>22.3</ele>
    <time>2025-12-20T13:59:04Z</time>
   </trkpt>
   <trkpt lat="53.4447270" lon="-6.1580090">
    <ele>22.6</ele>
    <time>2025-12-20T13:59:09Z</time>
   </trkpt>
   <trkpt lat="53.4448290" lon="-6.1580230">
    <ele>22.8</ele>
    <time>2025-12-20T13:59:14Z</time>
   </trkpt>
   <trkpt lat="53.4449340" lon="-6.1580540">
    <ele>22.7</ele>
    <time>2025-12-20T13:59:19Z</time>
   </trkpt>
   <trkpt lat="53.4450270" lon="-6.1580520">
    <ele>22.6</ele>
    <time>2025-12-20T13:59:24Z</time>
   </trkpt>
   <trkpt lat="53.4451190" lon="-6.1580670">
    <ele>22.8</ele>
    <time>2025-12-20T13:59:29Z</time>
   </trkpt>
   <trkpt lat="53.4452030" lon="-6.1581010">
    <ele>23.0</ele>
    <time>2025-12-20T13:59:34Z</time>
   </trkpt>
   <trkpt lat="53.4452650" lon="-6.1581260">
    <ele>22.9</ele>
    <time>2025-12-20T13:59:39Z</time>
   </trkpt>
   <trkpt lat="53.4453070" lon="-6.1580970">
    <ele>22.5</ele>
    <time>2025-12-20T13:59:45Z</time>
   </trkpt>
   <trkpt lat="53.4453610" lon="-6.1581050">
    <ele>22.3</ele>
    <time>2025-12-20T13:59:51Z</time>
   </trkpt>
   <trkpt lat="53.4454170" lon="-6.1581650">
    <ele>22.3</ele>
    <time>2025-12-20T13:59:56Z</time>
   </trkpt>
   <trkpt lat="53.4454680" lon="-6.1581830">
    <ele>22.2</ele>
    <time>2025-12-20T14:00:01Z</time>
   </trkpt>
   <trkpt lat="53.4455430" lon="-6.1581680">
    <ele>22.2</ele>
    <time>2025-12-20T14:00:06Z</time>
   </trkpt>
   <trkpt lat="53.4456420" lon="-6.1581470">
    <ele>22.2</ele>
    <time>2025-12-20T14:00:11Z</time>
   </trkpt>
   <trkpt lat="53.4457130" lon="-6.1581790">
    <ele>22.2</ele>
    <time>2025-12-20T14:00:17Z</time>
   </trkpt>
   <trkpt lat="53.4457710" lon="-6.1581980">
    <ele>22.2</ele>
    <time>2025-12-20T14:00:22Z</time>
   </trkpt>
   <trkpt lat="53.4458350" lon="-6.1582160">
    <ele>22.2</ele>
    <time>2025-12-20T14:00:27Z</time>
   </trkpt>
   <trkpt lat="53.4459030" lon="-6.1582270">
    <ele>22.2</ele>
    <time>2025-12-20T14:00:32Z</time>
   </trkpt>
   <trkpt lat="53.4459720" lon="-6.1582120">
    <ele>22.2</ele>
    <time>2025-12-20T14:00:37Z</time>
   </trkpt>
   <trkpt lat="53.4460190" lon="-6.1582170">
    <ele>22.2</ele>
    <time>2025-12-20T14:00:42Z</time>
   </trkpt>
   <trkpt lat="53.4460650" lon="-6.1582330">
    <ele>22.2</ele>
    <time>2025-12-20T14:00:47Z</time>
   </trkpt>
   <trkpt lat="53.4461340" lon="-6.1582390">
    <ele>22.2</ele>
    <time>2025-12-20T14:00:52Z</time>
   </trkpt>
   <trkpt lat="53.4462230" lon="-6.1582190">
    <ele>22.2</ele>
    <time>2025-12-20T14:00:57Z</time>
   </trkpt>
   <trkpt lat="53.4462830" lon="-6.1582300">
    <ele>22.2</ele>
    <time>2025-12-20T14:01:02Z</time>
   </trkpt>
   <trkpt lat="53.4463450" lon="-6.1582360">
    <ele>22.2</ele>
    <time>2025-12-20T14:01:08Z</time>
   </trkpt>
   <trkpt lat="53.4464210" lon="-6.1582740">
    <ele>22.2</ele>
    <time>2025-12-20T14:01:13Z</time>
   </trkpt>
   <trkpt lat="53.4464680" lon="-6.1583490">
    <ele>22.2</ele>
    <time>2025-12-20T14:01:18Z</time>
   </trkpt>
   <trkpt lat="53.4465080" lon="-6.1584090">
    <ele>22.2</ele>
    <time>2025-12-20T14:01:23Z</time>
   </trkpt>
   <trkpt lat="53.4465670" lon="-6.1584740">
    <ele>22.2</ele>
    <time>2025-12-20T14:01:28Z</time>
   </trkpt>
   <trkpt lat="53.4466180" lon="-6.1585150">
    <ele>22.2</ele>
    <time>2025-12-20T14:01:33Z</time>
   </trkpt>
   <trkpt lat="53.4466760" lon="-6.1585390">
    <ele>22.2</ele>
    <time>2025-12-20T14:01:38Z</time>
   </trkpt>
   <trkpt lat="53.4467360" lon="-6.1585690">
    <ele>22.2</ele>
    <time>2025-12-20T14:01:43Z</time>
   </trkpt>
   <trkpt lat="53.4467900" lon="-6.1585990">
    <ele>22.2</ele>
    <time>2025-12-20T14:01:49Z</time>
   </trkpt>
   <trkpt lat="53.4468480" lon="-6.1586410">
    <ele>22.2</ele>
    <time>2025-12-20T14:01:54Z</time>
   </trkpt>
   <trkpt lat="53.4469110" lon="-6.1586710">
    <ele>21.2</ele>
    <time>2025-12-20T14:01:59Z</time>
   </trkpt>
   <trkpt lat="53.4469920" lon="-6.1586860">
    <ele>20.0</ele>
    <time>2025-12-20T14:02:04Z</time>
   </trkpt>
   <trkpt lat="53.4470530" lon="-6.1587230">
    <ele>19.6</ele>
    <time>2025-12-20T14:02:09Z</time>
   </trkpt>
   <trkpt lat="53.4470940" lon="-6.1587850">
    <ele>20.1</ele>
    <time>2025-12-20T14:02:15Z</time>
   </trkpt>
   <trkpt lat="53.4471080" lon="-6.1588640">
    <ele>21.8</ele>
    <time>2025-12-20T14:02:29Z</time>
   </trkpt>
   <trkpt lat="53.4471850" lon="-6.1589040">
    <ele>22.0</ele>
    <time>2025-12-20T14:02:34Z</time>
   </trkpt>
   <trkpt lat="53.4472580" lon="-6.1589100">
    <ele>22.1</ele>
    <time>2025-12-20T14:02:39Z</time>
   </trkpt>
   <trkpt lat="53.4473440" lon="-6.1588870">
    <ele>22.2</ele>
    <time>2025-12-20T14:02:45Z</time>
   </trkpt>
   <trkpt lat="53.4474270" lon="-6.1588450">
    <ele>22.2</ele>
    <time>2025-12-20T14:02:50Z</time>
   </trkpt>
   <trkpt lat="53.4475030" lon="-6.1587880">
    <ele>22.2</ele>
    <time>2025-12-20T14:02:56Z</time>
   </trkpt>
   <trkpt lat="53.4475580" lon="-6.1587670">
    <ele>22.2</ele>
    <time>2025-12-20T14:03:01Z</time>
   </trkpt>
   <trkpt lat="53.4476070" lon="-6.1587700">
    <ele>22.2</ele>
    <time>2025-12-20T14:03:07Z</time>
   </trkpt>
   <trkpt lat="53.4476660" lon="-6.1588100">
    <ele>22.2</ele>
    <time>2025-12-20T14:03:12Z</time>
   </trkpt>
   <trkpt lat="53.4477260" lon="-6.1588250">
    <ele>22.2</ele>
    <time>2025-12-20T14:03:17Z</time>
   </trkpt>
   <trkpt lat="53.4477880" lon="-6.1587870">
    <ele>22.0</ele>
    <time>2025-12-20T14:03:22Z</time>
   </trkpt>
   <trkpt lat="53.4478560" lon="-6.1587480">
    <ele>21.6</ele>
    <time>2025-12-20T14:03:27Z</time>
   </trkpt>
   <trkpt lat="53.4479180" lon="-6.1587340">
    <ele>21.4</ele>
    <time>2025-12-20T14:03:32Z</time>
   </trkpt>
   <trkpt lat="53.4479720" lon="-6.1587360">
    <ele>21.4</ele>
    <time>2025-12-20T14:03:37Z</time>
   </trkpt>
   <trkpt lat="53.4480260" lon="-6.1587390">
    <ele>21.2</ele>
    <time>2025-12-20T14:03:42Z</time>
   </trkpt>
   <trkpt lat="53.4480880" lon="-6.1587270">
    <ele>20.9</ele>
    <time>2025-12-20T14:03:47Z</time>
   </trkpt>
   <trkpt lat="53.4481520" lon="-6.1587390">
    <ele>20.8</ele>
    <time>2025-12-20T14:03:53Z</time>
   </trkpt>
   <trkpt lat="53.4482250" lon="-6.1587340">
    <ele>20.6</ele>
    <time>2025-12-20T14:03:58Z</time>
   </trkpt>
   <trkpt lat="53.4482960" lon="-6.1587280">
    <ele>20.7</ele>
    <time>2025-12-20T14:04:03Z</time>
   </trkpt>
   <trkpt lat="53.4483680" lon="-6.1586990">
    <ele>21.1</ele>
    <time>2025-12-20T14:04:08Z</time>
   </trkpt>
   <trkpt lat="53.4484300" lon="-6.1587070">
    <ele>20.8</ele>
    <time>2025-12-20T14:04:13Z</time>
   </trkpt>
   <trkpt lat="53.4484860" lon="-6.1587320">
    <ele>20.7</ele>
    <time>2025-12-20T14:04:18Z</time>
   </trkpt>
   <trkpt lat="53.4485380" lon="-6.1587500">
    <ele>20.6</ele>
    <time>2025-12-20T14:04:24Z</time>
   </trkpt>
   <trkpt lat="53.4485990" lon="-6.1587490">
    <ele>20.5</ele>
    <time>2025-12-20T14:04:29Z</time>
   </trkpt>
   <trkpt lat="53.4486760" lon="-6.1587330">
    <ele>20.9</ele>
    <time>2025-12-20T14:04:34Z</time>
   </trkpt>
   <trkpt lat="53.4487610" lon="-6.1587720">
    <ele>21.1</ele>
    <time>2025-12-20T14:04:39Z</time>
   </trkpt>
   <trkpt lat="53.4488230" lon="-6.1587880">
    <ele>20.9</ele>
    <time>2025-12-20T14:04:45Z</time>
   </trkpt>
   <trkpt lat="53.4488870" lon="-6.1587490">
    <ele>20.7</ele>
    <time>2025-12-20T14:04:50Z</time>
   </trkpt>
   <trkpt lat="53.4489270" lon="-6.1586430">
    <ele>20.4</ele>
    <time>2025-12-20T14:04:55Z</time>
   </trkpt>
   <trkpt lat="53.4489520" lon="-6.1584910">
    <ele>20.2</ele>
    <time>2025-12-20T14:05:01Z</time>
   </trkpt>
   <trkpt lat="53.4490010" lon="-6.1583770">
    <ele>20.0</ele>
    <time>2025-12-20T14:05:06Z</time>
   </trkpt>
   <trkpt lat="53.4490620" lon="-6.1583300">
    <ele>20.1</ele>
    <time>2025-12-20T14:05:11Z</time>
   </trkpt>
   <trkpt lat="53.4491190" lon="-6.1583170">
    <ele>20.3</ele>
    <time>2025-12-20T14:05:16Z</time>
   </trkpt>
   <trkpt lat="53.4491700" lon="-6.1583260">
    <ele>20.7</ele>
    <time>2025-12-20T14:05:21Z</time>
   </trkpt>
   <trkpt lat="53.4492280" lon="-6.1583300">
    <ele>20.9</ele>
    <time>2025-12-20T14:05:26Z</time>
   </trkpt>
   <trkpt lat="53.4492920" lon="-6.1583160">
    <ele>21.2</ele>
    <time>2025-12-20T14:05:31Z</time>
   </trkpt>
   <trkpt lat="53.4493780" lon="-6.1583000">
    <ele>21.0</ele>
    <time>2025-12-20T14:05:36Z</time>
   </trkpt>
   <trkpt lat="53.4494500" lon="-6.1582800">
    <ele>20.7</ele>
    <time>2025-12-20T14:05:41Z</time>
   </trkpt>
   <trkpt lat="53.4495020" lon="-6.1582900">
    <ele>20.6</ele>
    <time>2025-12-20T14:05:46Z</time>
   </trkpt>
   <trkpt lat="53.4495580" lon="-6.1582930">
    <ele>20.1</ele>
    <time>2025-12-20T14:05:52Z</time>
   </trkpt>
   <trkpt lat="53.4496040" lon="-6.1582040">
    <ele>19.0</ele>
    <time>2025-12-20T14:05:57Z</time>
   </trkpt>
   <trkpt lat="53.4496250" lon="-6.1580940">
    <ele>17.8</ele>
    <time>2025-12-20T14:06:02Z</time>
   </trkpt>
   <trkpt lat="53.4496380" lon="-6.1580170">
    <ele>17.2</ele>
    <time>2025-12-20T14:06:07Z</time>
   </trkpt>
   <trkpt lat="53.4496710" lon="-6.1579280">
    <ele>17.0</ele>
    <time>2025-12-20T14:06:12Z</time>
   </trkpt>
   <trkpt lat="53.4496680" lon="-6.1577810">
    <ele>17.0</ele>
    <time>2025-12-20T14:06:17Z</time>
   </trkpt>
   <trkpt lat="53.4496640" lon="-6.1576480">
    <ele>17.2</ele>
    <time>2025-12-20T14:06:23Z</time>
   </trkpt>
   <trkpt lat="53.4496550" lon="-6.1575450">
    <ele>17.0</ele>
    <time>2025-12-20T14:06:28Z</time>
   </trkpt>
   <trkpt lat="53.4496500" lon="-6.1574410">
    <ele>17.4</ele>
    <time>2025-12-20T14:06:33Z</time>
   </trkpt>
   <trkpt lat="53.4496380" lon="-6.1573490">
    <ele>17.8</ele>
    <time>2025-12-20T14:06:38Z</time>
   </trkpt>
   <trkpt lat="53.4496300" lon="-6.1572280">
    <ele>17.7</ele>
    <time>2025-12-20T14:06:44Z</time>
   </trkpt>
   <trkpt lat="53.4496120" lon="-6.1571120">
    <ele>17.3</ele>
    <time>2025-12-20T14:06:49Z</time>
   </trkpt>
   <trkpt lat="53.4496430" lon="-6.1570160">
    <ele>17.1</ele>
    <time>2025-12-20T14:06:54Z</time>
   </trkpt>
   <trkpt lat="53.4497130" lon="-6.1570420">
    <ele>17.4</ele>
    <time>2025-12-20T14:06:59Z</time>
   </trkpt>
   <trkpt lat="53.4497900" lon="-6.1570460">
    <ele>17.9</ele>
    <time>2025-12-20T14:07:05Z</time>
   </trkpt>
   <trkpt lat="53.4498520" lon="-6.1570390">
    <ele>17.9</ele>
    <time>2025-12-20T14:07:10Z</time>
   </trkpt>
   <trkpt lat="53.4499140" lon="-6.1570320">
    <ele>18.3</ele>
    <time>2025-12-20T14:07:15Z</time>
   </trkpt>
   <trkpt lat="53.4499790" lon="-6.1570450">
    <ele>17.6</ele>
    <time>2025-12-20T14:07:20Z</time>
   </trkpt>
   <trkpt lat="53.4500230" lon="-6.1570160">
    <ele>17.2</ele>
    <time>2025-12-20T14:07:26Z</time>
   </trkpt>
   <trkpt lat="53.4500730" lon="-6.1570190">
    <ele>17.0</ele>
    <time>2025-12-20T14:07:33Z</time>
   </trkpt>
   <trkpt lat="53.4501190" lon="-6.1570060">
    <ele>16.9</ele>
    <time>2025-12-20T14:07:38Z</time>
   </trkpt>
   <trkpt lat="53.4501570" lon="-6.1569440">
    <ele>16.9</ele>
    <time>2025-12-20T14:07:44Z</time>
   </trkpt>
   <trkpt lat="53.4501740" lon="-6.1568640">
    <ele>17.1</ele>
    <time>2025-12-20T14:07:52Z</time>
   </trkpt>
   <trkpt lat="53.4501980" lon="-6.1566960">
    <ele>17.9</ele>
    <time>2025-12-20T14:07:57Z</time>
   </trkpt>
   <trkpt lat="53.4502300" lon="-6.1565720">
    <ele>17.2</ele>
    <time>2025-12-20T14:08:02Z</time>
   </trkpt>
   <trkpt lat="53.4502780" lon="-6.1564810">
    <ele>17.0</ele>
    <time>2025-12-20T14:08:07Z</time>
   </trkpt>
   <trkpt lat="53.4503010" lon="-6.1563770">
    <ele>17.0</ele>
    <time>2025-12-20T14:08:12Z</time>
   </trkpt>
   <trkpt lat="53.4503250" lon="-6.1562630">
    <ele>17.0</ele>
    <time>2025-12-20T14:08:17Z</time>
   </trkpt>
   <trkpt lat="53.4503320" lon="-6.1561400">
    <ele>15.9</ele>
    <time>2025-12-20T14:08:23Z</time>
   </trkpt>
   <trkpt lat="53.4503630" lon="-6.1560370">
    <ele>15.5</ele>
    <time>2025-12-20T14:08:28Z</time>
   </trkpt>
   <trkpt lat="53.4503920" lon="-6.1559440">
    <ele>15.2</ele>
    <time>2025-12-20T14:08:33Z</time>
   </trkpt>
   <trkpt lat="53.4504110" lon="-6.1558430">
    <ele>14.7</ele>
    <time>2025-12-20T14:08:38Z</time>
   </trkpt>
   <trkpt lat="53.4504420" lon="-6.1557520">
    <ele>14.3</ele>
    <time>2025-12-20T14:08:44Z</time>
   </trkpt>
   <trkpt lat="53.4504180" lon="-6.1556600">
    <ele>14.3</ele>
    <time>2025-12-20T14:08:50Z</time>
   </trkpt>
   <trkpt lat="53.4504230" lon="-6.1555570">
    <ele>14.2</ele>
    <time>2025-12-20T14:08:55Z</time>
   </trkpt>
   <trkpt lat="53.4504320" lon="-6.1554560">
    <ele>14.2</ele>
    <time>2025-12-20T14:09:00Z</time>
   </trkpt>
   <trkpt lat="53.4504560" lon="-6.1553680">
    <ele>14.2</ele>
    <time>2025-12-20T14:09:06Z</time>
   </trkpt>
   <trkpt lat="53.4504650" lon="-6.1552690">
    <ele>14.2</ele>
    <time>2025-12-20T14:09:11Z</time>
   </trkpt>
   <trkpt lat="53.4504760" lon="-6.1551700">
    <ele>14.0</ele>
    <time>2025-12-20T14:09:16Z</time>
   </trkpt>
   <trkpt lat="53.4505030" lon="-6.1550810">
    <ele>13.5</ele>
    <time>2025-12-20T14:09:22Z</time>
   </trkpt>
   <trkpt lat="53.4505360" lon="-6.1550110">
    <ele>13.5</ele>
    <time>2025-12-20T14:09:27Z</time>
   </trkpt>
   <trkpt lat="53.4505590" lon="-6.1549210">
    <ele>13.4</ele>
    <time>2025-12-20T14:09:32Z</time>
   </trkpt>
   <trkpt lat="53.4505580" lon="-6.1548070">
    <ele>13.2</ele>
    <time>2025-12-20T14:09:38Z</time>
   </trkpt>
   <trkpt lat="53.4505800" lon="-6.1547110">
    <ele>13.1</ele>
    <time>2025-12-20T14:09:43Z</time>
   </trkpt>
   <trkpt lat="53.4505760" lon="-6.1546110">
    <ele>13.0</ele>
    <time>2025-12-20T14:09:48Z</time>
   </trkpt>
   <trkpt lat="53.4505750" lon="-6.1545050">
    <ele>13.0</ele>
    <time>2025-12-20T14:09:53Z</time>
   </trkpt>
   <trkpt lat="53.4505910" lon="-6.1544020">
    <ele>13.0</ele>
    <time>2025-12-20T14:09:59Z</time>
   </trkpt>
   <trkpt lat="53.4506020" lon="-6.1543180">
    <ele>13.1</ele>
    <time>2025-12-20T14:10:04Z</time>
   </trkpt>
   <trkpt lat="53.4506170" lon="-6.1542210">
    <ele>12.9</ele>
    <time>2025-12-20T14:10:09Z</time>
   </trkpt>
   <trkpt lat="53.4506490" lon="-6.1541140">
    <ele>12.8</ele>
    <time>2025-12-20T14:10:14Z</time>
   </trkpt>
   <trkpt lat="53.4506810" lon="-6.1540480">
    <ele>12.7</ele>
    <time>2025-12-20T14:10:19Z</time>
   </trkpt>
   <trkpt lat="53.4507010" lon="-6.1539650">
    <ele>12.6</ele>
    <time>2025-12-20T14:10:24Z</time>
   </trkpt>
   <trkpt lat="53.4507070" lon="-6.1538890">
    <ele>12.4</ele>
    <time>2025-12-20T14:10:30Z</time>
   </trkpt>
   <trkpt lat="53.4506780" lon="-6.1538000">
    <ele>12.3</ele>
    <time>2025-12-20T14:10:35Z</time>
   </trkpt>
   <trkpt lat="53.4506290" lon="-6.1537120">
    <ele>12.3</ele>
    <time>2025-12-20T14:10:40Z</time>
   </trkpt>
   <trkpt lat="53.4506110" lon="-6.1536340">
    <ele>12.3</ele>
    <time>2025-12-20T14:10:45Z</time>
   </trkpt>
   <trkpt lat="53.4506350" lon="-6.1535640">
    <ele>11.9</ele>
    <time>2025-12-20T14:11:31Z</time>
   </trkpt>
   <trkpt lat="53.4505900" lon="-6.1534970">
    <ele>12.1</ele>
    <time>2025-12-20T14:11:36Z</time>
   </trkpt>
   <trkpt lat="53.4505000" lon="-6.1534490">
    <ele>12.6</ele>
    <time>2025-12-20T14:11:42Z</time>
   </trkpt>
   <trkpt lat="53.4505000" lon="-6.1533740">
    <ele>12.9</ele>
    <time>2025-12-20T14:11:47Z</time>
   </trkpt>
   <trkpt lat="53.4504550" lon="-6.1534190">
    <ele>13.1</ele>
    <time>2025-12-20T14:22:02Z</time>
   </trkpt>
   <trkpt lat="53.4504860" lon="-6.1535170">
    <ele>13.1</ele>
    <time>2025-12-20T14:22:07Z</time>
   </trkpt>
   <trkpt lat="53.4505780" lon="-6.1535170">
    <ele>12.6</ele>
    <time>2025-12-20T14:22:13Z</time>
   </trkpt>
   <trkpt lat="53.4506550" lon="-6.1535180">
    <ele>12.0</ele>
    <time>2025-12-20T14:22:18Z</time>
   </trkpt>
   <trkpt lat="53.4507140" lon="-6.1534380">
    <ele>11.4</ele>
    <time>2025-12-20T14:22:24Z</time>
   </trkpt>
   <trkpt lat="53.4507620" lon="-6.1534040">
    <ele>10.6</ele>
    <time>2025-12-20T14:22:34Z</time>
   </trkpt>
   <trkpt lat="53.4508250" lon="-6.1533220">
    <ele>10.6</ele>
    <time>2025-12-20T14:22:39Z</time>
   </trkpt>
   <trkpt lat="53.4508360" lon="-6.1532170">
    <ele>10.5</ele>
    <time>2025-12-20T14:22:44Z</time>
   </trkpt>
   <trkpt lat="53.4508660" lon="-6.1531040">
    <ele>10.9</ele>
    <time>2025-12-20T14:22:50Z</time>
   </trkpt>
   <trkpt lat="53.4508810" lon="-6.1530110">
    <ele>11.2</ele>
    <time>2025-12-20T14:22:56Z</time>
   </trkpt>
   <trkpt lat="53.4509180" lon="-6.1529490">
    <ele>11.1</ele>
    <time>2025-12-20T14:23:01Z</time>
   </trkpt>
   <trkpt lat="53.4509620" lon="-6.1529140">
    <ele>10.9</ele>
    <time>2025-12-20T14:23:07Z</time>
   </trkpt>
   <trkpt lat="53.4510100" lon="-6.1529360">
    <ele>10.9</ele>
    <time>2025-12-20T14:23:13Z</time>
   </trkpt>
   <trkpt lat="53.4510560" lon="-6.1529440">
    <ele>10.8</ele>
    <time>2025-12-20T14:23:18Z</time>
   </trkpt>
   <trkpt lat="53.4511920" lon="-6.1530590">
    <ele>10.9</ele>
    <time>2025-12-20T14:23:48Z</time>
   </trkpt>
   <trkpt lat="53.4512400" lon="-6.1530510">
    <ele>10.9</ele>
    <time>2025-12-20T14:25:01Z</time>
   </trkpt>
   <trkpt lat="53.4512750" lon="-6.1531070">
    <ele>10.9</ele>
    <time>2025-12-20T14:25:13Z</time>
   </trkpt>
   <trkpt lat="53.4513160" lon="-6.1531510">
    <ele>10.8</ele>
    <time>2025-12-20T14:26:15Z</time>
   </trkpt>
   <trkpt lat="53.4513630" lon="-6.1531650">
    <ele>10.8</ele>
    <time>2025-12-20T14:27:16Z</time>
   </trkpt>
   <trkpt lat="53.4513460" lon="-6.1530880">
    <ele>10.8</ele>
    <time>2025-12-20T14:27:36Z</time>
   </trkpt>
   <trkpt lat="53.4513890" lon="-6.1530460">
    <ele>10.8</ele>
    <time>2025-12-20T14:27:47Z</time>
   </trkpt>
   <trkpt lat="53.4514620" lon="-6.1530660">
    <ele>10.8</ele>
    <time>2025-12-20T14:28:20Z</time>
   </trkpt>
   <trkpt lat="53.4515460" lon="-6.1531140">
    <ele>10.8</ele>
    <time>2025-12-20T14:28:25Z</time>
   </trkpt>
   <trkpt lat="53.4514680" lon="-6.1531130">
    <ele>10.8</ele>
    <time>2025-12-20T14:28:31Z</time>
   </trkpt>
   <trkpt lat="53.4514200" lon="-6.1531130">
    <ele>10.8</ele>
    <time>2025-12-20T14:28:46Z</time>
   </trkpt>
   <trkpt lat="53.4513770" lon="-6.1530900">
    <ele>10.8</ele>
    <time>2025-12-20T14:28:59Z</time>
   </trkpt>
   <trkpt lat="53.4513320" lon="-6.1530680">
    <ele>10.8</ele>
    <time>2025-12-20T14:29:17Z</time>
   </trkpt>
   <trkpt lat="53.4513370" lon="-6.1529920">
    <ele>10.8</ele>
    <time>2025-12-20T14:29:23Z</time>
   </trkpt>
   <trkpt lat="53.4513550" lon="-6.1529220">
    <ele>10.9</ele>
    <time>2025-12-20T14:30:01Z</time>
   </trkpt>
   <trkpt lat="53.4513580" lon="-6.1528440">
    <ele>10.9</ele>
    <time>2025-12-20T14:30:08Z</time>
   </trkpt>
   <trkpt lat="53.4513250" lon="-6.1528950">
    <ele>10.9</ele>
    <time>2025-12-20T14:30:28Z</time>
   </trkpt>
   <trkpt lat="53.4513150" lon="-6.1528180">
    <ele>10.9</ele>
    <time>2025-12-20T14:30:50Z</time>
   </trkpt>
   <trkpt lat="53.4512940" lon="-6.1527450">
    <ele>10.9</ele>
    <time>2025-12-20T14:32:23Z</time>
   </trkpt>
   <trkpt lat="53.4512610" lon="-6.1528010">
    <ele>10.9</ele>
    <time>2025-12-20T14:32:36Z</time>
   </trkpt>
   <trkpt lat="53.4512970" lon="-6.1528810">
    <ele>10.9</ele>
    <time>2025-12-20T14:32:43Z</time>
   </trkpt>
   <trkpt lat="53.4512620" lon="-6.1528200">
    <ele>10.9</ele>
    <time>2025-12-20T14:34:42Z</time>
   </trkpt>
   <trkpt lat="53.4509960" lon="-6.1529450">
    <ele>10.9</ele>
    <time>2025-12-20T14:35:14Z</time>
   </trkpt>
   <trkpt lat="53.4509530" lon="-6.1529830">
    <ele>10.9</ele>
    <time>2025-12-20T14:36:47Z</time>
   </trkpt>
   <trkpt lat="53.4509350" lon="-6.1530920">
    <ele>11.2</ele>
    <time>2025-12-20T14:36:52Z</time>
   </trkpt>
   <trkpt lat="53.4508990" lon="-6.1531560">
    <ele>11.2</ele>
    <time>2025-12-20T14:36:57Z</time>
   </trkpt>
   <trkpt lat="53.4508730" lon="-6.1532180">
    <ele>11.3</ele>
    <time>2025-12-20T14:37:02Z</time>
   </trkpt>
   <trkpt lat="53.4508450" lon="-6.1533060">
    <ele>11.3</ele>
    <time>2025-12-20T14:37:07Z</time>
   </trkpt>
   <trkpt lat="53.4508230" lon="-6.1534100">
    <ele>11.3</ele>
    <time>2025-12-20T14:37:13Z</time>
   </trkpt>
   <trkpt lat="53.4508200" lon="-6.1535400">
    <ele>11.3</ele>
    <time>2025-12-20T14:37:18Z</time>
   </trkpt>
   <trkpt lat="53.4508060" lon="-6.1536730">
    <ele>11.3</ele>
    <time>2025-12-20T14:37:23Z</time>
   </trkpt>
   <trkpt lat="53.4508120" lon="-6.1538160">
    <ele>11.3</ele>
    <time>2025-12-20T14:37:29Z</time>
   </trkpt>
   <trkpt lat="53.4507820" lon="-6.1539050">
    <ele>11.6</ele>
    <time>2025-12-20T14:37:34Z</time>
   </trkpt>
   <trkpt lat="53.4507500" lon="-6.1540110">
    <ele>11.9</ele>
    <time>2025-12-20T14:37:40Z</time>
   </trkpt>
   <trkpt lat="53.4507240" lon="-6.1541020">
    <ele>12.2</ele>
    <time>2025-12-20T14:37:45Z</time>
   </trkpt>
   <trkpt lat="53.4507110" lon="-6.1542090">
    <ele>12.3</ele>
    <time>2025-12-20T14:37:51Z</time>
   </trkpt>
   <trkpt lat="53.4506940" lon="-6.1543220">
    <ele>12.5</ele>
    <time>2025-12-20T14:37:56Z</time>
   </trkpt>
   <trkpt lat="53.4506690" lon="-6.1544300">
    <ele>12.6</ele>
    <time>2025-12-20T14:38:01Z</time>
   </trkpt>
   <trkpt lat="53.4506550" lon="-6.1545390">
    <ele>12.8</ele>
    <time>2025-12-20T14:38:06Z</time>
   </trkpt>
   <trkpt lat="53.4506370" lon="-6.1546420">
    <ele>12.9</ele>
    <time>2025-12-20T14:38:11Z</time>
   </trkpt>
   <trkpt lat="53.4506200" lon="-6.1547640">
    <ele>13.0</ele>
    <time>2025-12-20T14:38:17Z</time>
   </trkpt>
   <trkpt lat="53.4506100" lon="-6.1548890">
    <ele>13.0</ele>
    <time>2025-12-20T14:38:22Z</time>
   </trkpt>
   <trkpt lat="53.4505890" lon="-6.1550150">
    <ele>13.0</ele>
    <time>2025-12-20T14:38:28Z</time>
   </trkpt>
   <trkpt lat="53.4505680" lon="-6.1551180">
    <ele>12.9</ele>
    <time>2025-12-20T14:38:33Z</time>
   </trkpt>
   <trkpt lat="53.4505630" lon="-6.1552060">
    <ele>13.4</ele>
    <time>2025-12-20T14:38:39Z</time>
   </trkpt>
   <trkpt lat="53.4505560" lon="-6.1553330">
    <ele>13.8</ele>
    <time>2025-12-20T14:38:44Z</time>
   </trkpt>
   <trkpt lat="53.4505390" lon="-6.1554630">
    <ele>14.0</ele>
    <time>2025-12-20T14:38:49Z</time>
   </trkpt>
   <trkpt lat="53.4505170" lon="-6.1555710">
    <ele>14.1</ele>
    <time>2025-12-20T14:38:54Z</time>
   </trkpt>
   <trkpt lat="53.4505030" lon="-6.1556990">
    <ele>14.2</ele>
    <time>2025-12-20T14:39:00Z</time>
   </trkpt>
   <trkpt lat="53.4504700" lon="-6.1558180">
    <ele>14.7</ele>
    <time>2025-12-20T14:39:06Z</time>
   </trkpt>
   <trkpt lat="53.4504480" lon="-6.1559220">
    <ele>14.7</ele>
    <time>2025-12-20T14:39:11Z</time>
   </trkpt>
   <trkpt lat="53.4504240" lon="-6.1560430">
    <ele>14.7</ele>
    <time>2025-12-20T14:39:16Z</time>
   </trkpt>
   <trkpt lat="53.4504110" lon="-6.1561540">
    <ele>14.4</ele>
    <time>2025-12-20T14:39:22Z</time>
   </trkpt>
   <trkpt lat="53.4503790" lon="-6.1562720">
    <ele>14.9</ele>
    <time>2025-12-20T14:39:27Z</time>
   </trkpt>
   <trkpt lat="53.4503640" lon="-6.1563890">
    <ele>15.2</ele>
    <time>2025-12-20T14:39:32Z</time>
   </trkpt>
   <trkpt lat="53.4503480" lon="-6.1565190">
    <ele>15.3</ele>
    <time>2025-12-20T14:39:38Z</time>
   </trkpt>
   <trkpt lat="53.4503150" lon="-6.1566170">
    <ele>15.4</ele>
    <time>2025-12-20T14:39:43Z</time>
   </trkpt>
   <trkpt lat="53.4502950" lon="-6.1567390">
    <ele>16.0</ele>
    <time>2025-12-20T14:39:48Z</time>
   </trkpt>
   <trkpt lat="53.4502800" lon="-6.1568610">
    <ele>16.6</ele>
    <time>2025-12-20T14:39:54Z</time>
   </trkpt>
   <trkpt lat="53.4503280" lon="-6.1568800">
    <ele>15.1</ele>
    <time>2025-12-20T14:40:38Z</time>
   </trkpt>
   <trkpt lat="53.4504170" lon="-6.1569480">
    <ele>13.6</ele>
    <time>2025-12-20T14:40:44Z</time>
   </trkpt>
   <trkpt lat="53.4504810" lon="-6.1570090">
    <ele>12.4</ele>
    <time>2025-12-20T14:40:49Z</time>
   </trkpt>
   <trkpt lat="53.4505550" lon="-6.1570640">
    <ele>11.4</ele>
    <time>2025-12-20T14:40:55Z</time>
   </trkpt>
   <trkpt lat="53.4506290" lon="-6.1570900">
    <ele>10.5</ele>
    <time>2025-12-20T14:41:00Z</time>
   </trkpt>
   <trkpt lat="53.4507050" lon="-6.1571400">
    <ele>9.5</ele>
    <time>2025-12-20T14:41:05Z</time>
   </trkpt>
   <trkpt lat="53.4507730" lon="-6.1572060">
    <ele>9.1</ele>
    <time>2025-12-20T14:41:11Z</time>
   </trkpt>
   <trkpt lat="53.4508310" lon="-6.1571870">
    <ele>9.0</ele>
    <time>2025-12-20T14:41:17Z</time>
   </trkpt>
   <trkpt lat="53.4509020" lon="-6.1572170">
    <ele>8.9</ele>
    <time>2025-12-20T14:41:22Z</time>
   </trkpt>
   <trkpt lat="53.4509690" lon="-6.1572340">
    <ele>8.9</ele>
    <time>2025-12-20T14:41:27Z</time>
   </trkpt>
   <trkpt lat="53.4510330" lon="-6.1571560">
    <ele>9.0</ele>
    <time>2025-12-20T14:41:33Z</time>
   </trkpt>
   <trkpt lat="53.4510430" lon="-6.1570780">
    <ele>9.1</ele>
    <time>2025-12-20T14:41:38Z</time>
   </trkpt>
   <trkpt lat="53.4510370" lon="-6.1569980">
    <ele>9.1</ele>
    <time>2025-12-20T14:41:44Z</time>
   </trkpt>
  </trkseg>
 </trk>
</gpx>
